Observation data for South Plains 3ENE on 03/05/2021      Previous  Date  Next       Current Mesonet Observations  Soil Data  Daily Summary Page  Observations in Plain Language
KSP2 050600Z 28011KT 09/M05 A2992 RMK A01 T00891051  RH  037%=      5-min Rain = 0
KSP2 050601Z 28009KT 09/M05 A2992 RMK A01 T00891051  RH  037%=      5-min Rain = 0
KSP2 050602Z 28010KT 09/M05 A2992 RMK A01 T00881051  RH  037%=      5-min Rain = 0
KSP2 050603Z 28009KT 09/M05 A2992 RMK A01 T00871052  RH  037%=      5-min Rain = 0
KSP2 050604Z 28009KT 09/M05 A2992 RMK A01 T00861052  RH  037%=      5-min Rain = 0
KSP2 050605Z 28009KT 09/M05 A2991 RMK A01 T00851052  RH  038%=      5-min Rain = 0
KSP2 050606Z 28009KT 09/M05 A2991 RMK A01 T00851052  RH  038%=      5-min Rain = 0
KSP2 050607Z 28008KT 08/M05 A2991 RMK A01 T00841052  RH  038%=      5-min Rain = 0
KSP2 050608Z 27009KT 08/M05 A2991 RMK A01 T00841052  RH  038%=      5-min Rain = 0
KSP2 050609Z 27010KT 08/M05 A2991 RMK A01 T00821052  RH  038%=      5-min Rain = 0
KSP2 050610Z 28009KT 08/M05 A2991 RMK A01 T00811053  RH  038%=      5-min Rain = 0
KSP2 050611Z 28009KT 08/M05 A2992 RMK A01 T00811053  RH  038%=      5-min Rain = 0
KSP2 050612Z 28010KT 08/M05 A2992 RMK A01 T00811052  RH  039%=      5-min Rain = 0
KSP2 050613Z 28010KT 08/M05 A2992 RMK A01 T00801052  RH  039%=      5-min Rain = 0
KSP2 050614Z 28009KT 08/M05 A2992 RMK A01 T00801052  RH  039%=      5-min Rain = 0
KSP2 050615Z 28010KT 08/M05 A2992 RMK A01 T00801052  RH  039%=      5-min Rain = 0
KSP2 050616Z 28009KT 08/M05 A2992 RMK A01 T00791052  RH  039%=      5-min Rain = 0
KSP2 050617Z 28010KT 08/M05 A2992 RMK A01 T00791052  RH  039%=      5-min Rain = 0
KSP2 050618Z 28010KT 08/M05 A2992 RMK A01 T00791052  RH  039%=      5-min Rain = 0
KSP2 050619Z 28010KT 08/M05 A2992 RMK A01 T00781052  RH  039%=      5-min Rain = 0
KSP2 050620Z 28009KT 08/M05 A2992 RMK A01 T00781052  RH  039%=      5-min Rain = 0
KSP2 050621Z 28009KT 08/M05 A2992 RMK A01 T00771052  RH  039%=      5-min Rain = 0
KSP2 050622Z 28009KT 08/M05 A2992 RMK A01 T00771052  RH  040%=      5-min Rain = 0
KSP2 050623Z 28009KT 08/M05 A2992 RMK A01 T00761053  RH  040%=      5-min Rain = 0
KSP2 050624Z 28009KT 08/M05 A2992 RMK A01 T00751053  RH  040%=      5-min Rain = 0
KSP2 050625Z 28008KT 07/M05 A2992 RMK A01 T00741053  RH  040%=      5-min Rain = 0
KSP2 050626Z 28009KT 07/M05 A2992 RMK A01 T00741053  RH  040%=      5-min Rain = 0
KSP2 050627Z 28008KT 07/M05 A2992 RMK A01 T00741052  RH  040%=      5-min Rain = 0
KSP2 050628Z 28008KT 07/M05 A2992 RMK A01 T00731052  RH  040%=      5-min Rain = 0
KSP2 050629Z 27008KT 07/M05 A2992 RMK A01 T00731053  RH  040%=      5-min Rain = 0
KSP2 050630Z 27009KT 07/M05 A2992 RMK A01 T00721053  RH  041%=      5-min Rain = 0
KSP2 050631Z 28009KT 07/M05 A2992 RMK A01 T00721052  RH  041%=      5-min Rain = 0
KSP2 050632Z 28010KT 07/M05 A2992 RMK A01 T00721052  RH  041%=      5-min Rain = 0
KSP2 050633Z 29009KT 07/M05 A2993 RMK A01 T00721052  RH  041%=      5-min Rain = 0
KSP2 050634Z 28010KT 07/M05 A2993 RMK A01 T00721052  RH  041%=      5-min Rain = 0
KSP2 050635Z 28009KT 07/M05 A2993 RMK A01 T00721052  RH  041%=      5-min Rain = 0
KSP2 050636Z 28009KT 07/M05 A2993 RMK A01 T00731052  RH  041%=      5-min Rain = 0
KSP2 050637Z 28008KT 07/M05 A2993 RMK A01 T00731051  RH  041%=      5-min Rain = 0
KSP2 050638Z 27009KT 07/M05 A2993 RMK A01 T00721052  RH  041%=      5-min Rain = 0
KSP2 050639Z 27009KT 07/M05 A2993 RMK A01 T00731052  RH  041%=      5-min Rain = 0
KSP2 050640Z 27009KT 07/M05 A2993 RMK A01 T00731052  RH  041%=      5-min Rain = 0
KSP2 050641Z 27009KT 07/M05 A2993 RMK A01 T00721052  RH  041%=      5-min Rain = 0
KSP2 050642Z 27009KT 07/M05 A2993 RMK A01 T00721052  RH  041%=      5-min Rain = 0
KSP2 050643Z 28009KT 07/M05 A2993 RMK A01 T00721052  RH  041%=      5-min Rain = 0
KSP2 050644Z 28008KT 07/M05 A2993 RMK A01 T00721052  RH  041%=      5-min Rain = 0
KSP2 050645Z 28008KT 07/M05 A2993 RMK A01 T00721052  RH  041%=      5-min Rain = 0
KSP2 050646Z 28008KT 07/M05 A2993 RMK A01 T00721052  RH  041%=      5-min Rain = 0
KSP2 050647Z 28009KT 07/M05 A2993 RMK A01 T00721052  RH  041%=      5-min Rain = 0
KSP2 050648Z 28008KT 07/M05 A2993 RMK A01 T00711052  RH  041%=      5-min Rain = 0
KSP2 050649Z 28010KT 07/M05 A2992 RMK A01 T00711052  RH  041%=      5-min Rain = 0
KSP2 050650Z 28009KT 07/M05 A2992 RMK A01 T00711052  RH  041%=      5-min Rain = 0
KSP2 050651Z 28009KT 07/M05 A2992 RMK A01 T00711052  RH  041%=      5-min Rain = 0
KSP2 050652Z 28010KT 07/M05 A2992 RMK A01 T00721051  RH  041%=      5-min Rain = 0
KSP2 050653Z 28008KT 07/M05 A2992 RMK A01 T00741050  RH  041%=      5-min Rain = 0
KSP2 050654Z 28009KT 07/M05 A2992 RMK A01 T00741051  RH  041%=      5-min Rain = 0
KSP2 050655Z 28008KT 07/M05 A2992 RMK A01 T00741051  RH  041%=      5-min Rain = 0
KSP2 050656Z 28009KT 07/M05 A2992 RMK A01 T00741051  RH  041%=      5-min Rain = 0
KSP2 050657Z 28008KT 07/M05 A2992 RMK A01 T00741051  RH  041%=      5-min Rain = 0
KSP2 050658Z 28009KT 08/M05 A2992 RMK A01 T00751050  RH  041%=      5-min Rain = 0
KSP2 050659Z 28009KT 08/M05 A2992 RMK A01 T00761049  RH  041%=      5-min Rain = 0
KSP2 050700Z 28009KT 08/M05 A2992 RMK A01 T00761049  RH  041%=      5-min Rain = 0
KSP2 050701Z 28010KT 08/M05 A2992 RMK A01 T00761049  RH  041%=      5-min Rain = 0
KSP2 050702Z 28009KT 08/M05 A2992 RMK A01 T00761049  RH  041%=      5-min Rain = 0
KSP2 050703Z 28009KT 08/M05 A2992 RMK A01 T00751049  RH  041%=      5-min Rain = 0
KSP2 050704Z 28009KT 08/M05 A2992 RMK A01 T00751049  RH  041%=      5-min Rain = 0
KSP2 050705Z 28010KT 08/M05 A2992 RMK A01 T00751048  RH  041%=      5-min Rain = 0
KSP2 050706Z 28010KT 08/M05 A2993 RMK A01 T00751047  RH  042%=      5-min Rain = 0
KSP2 050707Z 28010KT 08/M05 A2993 RMK A01 T00751047  RH  042%=      5-min Rain = 0
KSP2 050708Z 28010KT 07/M05 A2993 RMK A01 T00741046  RH  042%=      5-min Rain = 0
KSP2 050709Z 29010KT 07/M05 A2993 RMK A01 T00741045  RH  042%=      5-min Rain = 0
KSP2 050710Z 29010KT 07/M05 A2993 RMK A01 T00741045  RH  042%=      5-min Rain = 0
KSP2 050711Z 29010KT 07/M05 A2993 RMK A01 T00741045  RH  043%=      5-min Rain = 0
KSP2 050712Z 29010KT 07/M05 A2993 RMK A01 T00731045  RH  043%=      5-min Rain = 0
KSP2 050713Z 29010KT 07/M04 A2993 RMK A01 T00731044  RH  043%=      5-min Rain = 0
KSP2 050714Z 29009KT 07/M04 A2993 RMK A01 T00731044  RH  043%=      5-min Rain = 0
KSP2 050715Z 29010KT 07/M04 A2993 RMK A01 T00721043  RH  044%=      5-min Rain = 0
KSP2 050716Z 29010KT 07/M04 A2993 RMK A01 T00721042  RH  044%=      5-min Rain = 0
KSP2 050717Z 29011KT 07/M04 A2993 RMK A01 T00721042  RH  044%=      5-min Rain = 0
KSP2 050718Z 29011KT 07/M04 A2993 RMK A01 T00721042  RH  044%=      5-min Rain = 0
KSP2 050719Z 29011KT 07/M04 A2993 RMK A01 T00721042  RH  044%=      5-min Rain = 0
KSP2 050720Z 29010KT 07/M04 A2993 RMK A01 T00721042  RH  044%=      5-min Rain = 0
KSP2 050721Z 28010KT 07/M04 A2993 RMK A01 T00721042  RH  044%=      5-min Rain = 0
KSP2 050722Z 29011KT 07/M04 A2993 RMK A01 T00711042  RH  044%=      5-min Rain = 0
KSP2 050723Z 29009KT 07/M04 A2993 RMK A01 T00711042  RH  044%=      5-min Rain = 0
KSP2 050724Z 29009KT 07/M04 A2993 RMK A01 T00711042  RH  044%=      5-min Rain = 0
KSP2 050725Z 29008KT 07/M04 A2993 RMK A01 T00711042  RH  044%=      5-min Rain = 0
KSP2 050726Z 29009KT 07/M04 A2993 RMK A01 T00701042  RH  045%=      5-min Rain = 0
KSP2 050727Z 29009KT 07/M04 A2993 RMK A01 T00701041  RH  045%=      5-min Rain = 0
KSP2 050728Z 29008KT 07/M04 A2993 RMK A01 T00691041  RH  045%=      5-min Rain = 0
KSP2 050729Z 29009KT 07/M04 A2993 RMK A01 T00691040  RH  046%=      5-min Rain = 0
KSP2 050730Z 29009KT 07/M04 A2993 RMK A01 T00691039  RH  046%=      5-min Rain = 0
KSP2 050731Z 29010KT 07/M04 A2993 RMK A01 T00681039  RH  046%=      5-min Rain = 0
KSP2 050732Z 30009KT 07/M04 A2993 RMK A01 T00681038  RH  047%=      5-min Rain = 0
KSP2 050733Z 29010KT 07/M04 A2993 RMK A01 T00681038  RH  047%=      5-min Rain = 0
KSP2 050734Z 29011KT 07/M04 A2993 RMK A01 T00671037  RH  047%=      5-min Rain = 0
KSP2 050735Z 29011KT 07/M04 A2993 RMK A01 T00671037  RH  047%=      5-min Rain = 0
KSP2 050736Z 29012KT 07/M04 A2993 RMK A01 T00671036  RH  048%=      5-min Rain = 0
KSP2 050737Z 29011KT 07/M04 A2993 RMK A01 T00681036  RH  048%=      5-min Rain = 0
KSP2 050738Z 29010KT 07/M04 A2993 RMK A01 T00681036  RH  048%=      5-min Rain = 0
KSP2 050739Z 29010KT 07/M04 A2993 RMK A01 T00671035  RH  048%=      5-min Rain = 0
KSP2 050740Z 29011KT 07/M04 A2993 RMK A01 T00661035  RH  048%=      5-min Rain = 0
KSP2 050741Z 29011KT 07/M03 A2993 RMK A01 T00661034  RH  049%=      5-min Rain = 0
KSP2 050742Z 29011KT 07/M03 A2993 RMK A01 T00661034  RH  049%=      5-min Rain = 0
KSP2 050743Z 28010KT 07/M03 A2993 RMK A01 T00651034  RH  049%=      5-min Rain = 0
KSP2 050744Z 29011KT 06/M03 A2994 RMK A01 T00641034  RH  049%=      5-min Rain = 0
KSP2 050745Z 29011KT 06/M04 A2994 RMK A01 T00631035  RH  049%=      5-min Rain = 0
KSP2 050746Z 29010KT 06/M04 A2994 RMK A01 T00621035  RH  050%=      5-min Rain = 0
KSP2 050747Z 29011KT 06/M04 A2994 RMK A01 T00621035  RH  050%=      5-min Rain = 0
KSP2 050748Z 29010KT 06/M04 A2994 RMK A01 T00621035  RH  050%=      5-min Rain = 0
KSP2 050749Z 29010KT 06/M04 A2994 RMK A01 T00611035  RH  050%=      5-min Rain = 0
KSP2 050750Z 29010KT 06/M04 A2994 RMK A01 T00611035  RH  050%=      5-min Rain = 0
KSP2 050751Z 29011KT 06/M04 A2994 RMK A01 T00611035  RH  050%=      5-min Rain = 0
KSP2 050752Z 29010KT 06/M04 A2994 RMK A01 T00611035  RH  050%=      5-min Rain = 0
KSP2 050753Z 29010KT 06/M03 A2994 RMK A01 T00611034  RH  051%=      5-min Rain = 0
KSP2 050754Z 29010KT 06/M03 A2994 RMK A01 T00611034  RH  051%=      5-min Rain = 0
KSP2 050755Z 29010KT 06/M03 A2994 RMK A01 T00601034  RH  051%=      5-min Rain = 0
KSP2 050756Z 29010KT 06/M03 A2994 RMK A01 T00591033  RH  051%=      5-min Rain = 0
KSP2 050757Z 29010KT 06/M03 A2994 RMK A01 T00591032  RH  052%=      5-min Rain = 0
KSP2 050758Z 30009KT 06/M03 A2994 RMK A01 T00591032  RH  052%=      5-min Rain = 0
KSP2 050759Z 29010KT 06/M03 A2994 RMK A01 T00591031  RH  052%=      5-min Rain = 0
KSP2 050800Z 30009KT 06/M03 A2994 RMK A01 T00601030  RH  052%=      5-min Rain = 0
KSP2 050801Z 30010KT 06/M03 A2994 RMK A01 T00591030  RH  053%=      5-min Rain = 0
KSP2 050802Z 30009KT 06/M03 A2994 RMK A01 T00591030  RH  053%=      5-min Rain = 0
KSP2 050803Z 30010KT 06/M03 A2994 RMK A01 T00601029  RH  053%=      5-min Rain = 0
KSP2 050804Z 30010KT 06/M03 A2994 RMK A01 T00601029  RH  053%=      5-min Rain = 0
KSP2 050805Z 30011KT 06/M03 A2994 RMK A01 T00601029  RH  053%=      5-min Rain = 0
KSP2 050806Z 30010KT 06/M03 A2994 RMK A01 T00601029  RH  053%=      5-min Rain = 0
KSP2 050807Z 30011KT 06/M03 A2994 RMK A01 T00601028  RH  053%=      5-min Rain = 0
KSP2 050808Z 30011KT 06/M03 A2994 RMK A01 T00591028  RH  053%=      5-min Rain = 0
KSP2 050809Z 30010KT 06/M03 A2994 RMK A01 T00601028  RH  054%=      5-min Rain = 0
KSP2 050810Z 30010KT 06/M03 A2994 RMK A01 T00601027  RH  054%=      5-min Rain = 0
KSP2 050811Z 30012KT 06/M03 A2994 RMK A01 T00591027  RH  054%=      5-min Rain = 0
KSP2 050812Z 30011KT 06/M03 A2995 RMK A01 T00591026  RH  054%=      5-min Rain = 0
KSP2 050813Z 30012KT 06/M03 A2994 RMK A01 T00601026  RH  054%=      5-min Rain = 0
KSP2 050814Z 30010KT 06/M03 A2994 RMK A01 T00601026  RH  054%=      5-min Rain = 0
KSP2 050815Z 30010KT 06/M03 A2995 RMK A01 T00591026  RH  055%=      5-min Rain = 0
KSP2 050816Z 30011KT 06/M03 A2995 RMK A01 T00591025  RH  055%=      5-min Rain = 0
KSP2 050817Z 30010KT 06/M03 A2995 RMK A01 T00591025  RH  055%=      5-min Rain = 0
KSP2 050818Z 30010KT 06/M03 A2995 RMK A01 T00591025  RH  055%=      5-min Rain = 0
KSP2 050819Z 30011KT 06/M02 A2995 RMK A01 T00591024  RH  055%=      5-min Rain = 0
KSP2 050820Z 30011KT 06/M02 A2995 RMK A01 T00591024  RH  055%=      5-min Rain = 0
KSP2 050821Z 30010KT 06/M02 A2995 RMK A01 T00591023  RH  055%=      5-min Rain = 0
KSP2 050822Z 30012KT 06/M02 A2995 RMK A01 T00601023  RH  055%=      5-min Rain = 0
KSP2 050823Z 30011KT 06/M02 A2995 RMK A01 T00591023  RH  055%=      5-min Rain = 0
KSP2 050824Z 30012KT 06/M02 A2994 RMK A01 T00601023  RH  056%=      5-min Rain = 0
KSP2 050825Z 30011KT 06/M02 A2994 RMK A01 T00601021  RH  056%=      5-min Rain = 0
KSP2 050826Z 30012KT 06/M02 A2994 RMK A01 T00601021  RH  056%=      5-min Rain = 0
KSP2 050827Z 30013KT 06/M02 A2994 RMK A01 T00611020  RH  056%=      5-min Rain = 0
KSP2 050828Z 31013KT 06/M02 A2994 RMK A01 T00611019  RH  056%=      5-min Rain = 0
KSP2 050829Z 30013KT 06/M02 A2994 RMK A01 T00631018  RH  056%=      5-min Rain = 0
KSP2 050830Z 31012KT 06/M02 A2994 RMK A01 T00641017  RH  056%=      5-min Rain = 0
KSP2 050831Z 30012KT 06/M02 A2995 RMK A01 T00641017  RH  056%=      5-min Rain = 0
KSP2 050832Z 30012KT 07/M02 A2995 RMK A01 T00651017  RH  056%=      5-min Rain = 0
KSP2 050833Z 30012KT 06/M02 A2995 RMK A01 T00641017  RH  056%=      5-min Rain = 0
KSP2 050834Z 30012KT 06/M02 A2995 RMK A01 T00641018  RH  056%=      5-min Rain = 0
KSP2 050835Z 30012KT 06/M02 A2995 RMK A01 T00641018  RH  056%=      5-min Rain = 0
KSP2 050836Z 30013G19KT 06/M02 A2995 RMK A01 T00631018  RH  056%=      5-min Rain = 0
KSP2 050837Z 30013KT 06/M02 A2995 RMK A01 T00621017  RH  057%=      5-min Rain = 0
KSP2 050838Z 30013KT 06/M02 A2995 RMK A01 T00621017  RH  057%=      5-min Rain = 0
KSP2 050839Z 30014KT 06/M02 A2995 RMK A01 T00621017  RH  057%=      5-min Rain = 0
KSP2 050840Z 30013KT 06/M02 A2995 RMK A01 T00631016  RH  057%=      5-min Rain = 0
KSP2 050841Z 30014KT 06/M02 A2994 RMK A01 T00631016  RH  057%=      5-min Rain = 0
KSP2 050842Z 30013KT 06/M02 A2994 RMK A01 T00631015  RH  057%=      5-min Rain = 0
KSP2 050843Z 29012KT 06/M02 A2994 RMK A01 T00631015  RH  057%=      5-min Rain = 0
KSP2 050844Z 30012KT 06/M02 A2994 RMK A01 T00631015  RH  057%=      5-min Rain = 0
KSP2 050845Z 30013KT 06/M02 A2995 RMK A01 T00631015  RH  057%=      5-min Rain = 0
KSP2 050846Z 30013KT 06/M01 A2994 RMK A01 T00631014  RH  058%=      5-min Rain = 0
KSP2 050847Z 30014KT 06/M02 A2994 RMK A01 T00621015  RH  058%=      5-min Rain = 0
KSP2 050848Z 29011KT 06/M01 A2994 RMK A01 T00621014  RH  058%=      5-min Rain = 0
KSP2 050849Z 30014KT 06/M01 A2994 RMK A01 T00621014  RH  058%=      5-min Rain = 0
KSP2 050850Z 30013KT 06/M01 A2994 RMK A01 T00621014  RH  058%=      5-min Rain = 0
KSP2 050851Z 30015KT 06/M01 A2995 RMK A01 T00621013  RH  058%=      5-min Rain = 0
KSP2 050852Z 30013KT 06/M01 A2994 RMK A01 T00621013  RH  058%=      5-min Rain = 0
KSP2 050853Z 30013KT 06/M01 A2995 RMK A01 T00621013  RH  058%=      5-min Rain = 0
KSP2 050854Z 30014KT 06/M01 A2994 RMK A01 T00621013  RH  059%=      5-min Rain = 0
KSP2 050855Z 30014KT 06/M01 A2994 RMK A01 T00631012  RH  059%=      5-min Rain = 0
KSP2 050856Z 30013KT 06/M01 A2994 RMK A01 T00631012  RH  058%=      5-min Rain = 0
KSP2 050857Z 30013KT 06/M01 A2994 RMK A01 T00631012  RH  058%=      5-min Rain = 0
KSP2 050858Z 30014KT 06/M01 A2994 RMK A01 T00631012  RH  059%=      5-min Rain = 0
KSP2 050859Z 30015KT 06/M01 A2994 RMK A01 T00631012  RH  059%=      5-min Rain = 0
KSP2 050900Z 30014KT 06/M01 A2994 RMK A01 T00631012  RH  059%=      5-min Rain = 0
KSP2 050901Z 30013KT 06/M01 A2995 RMK A01 T00631012  RH  059%=      5-min Rain = 0
KSP2 050902Z 30015KT 06/M01 A2994 RMK A01 T00631011  RH  059%=      5-min Rain = 0
KSP2 050903Z 30014G19KT 06/M01 A2994 RMK A01 T00631011  RH  059%=      5-min Rain = 0
KSP2 050904Z 30013KT 06/M01 A2994 RMK A01 T00631011  RH  059%=      5-min Rain = 0
KSP2 050905Z 30013KT 06/M01 A2994 RMK A01 T00631011  RH  059%=      5-min Rain = 0
KSP2 050906Z 30014KT 06/M01 A2994 RMK A01 T00631011  RH  059%=      5-min Rain = 0
KSP2 050907Z 30014KT 06/M01 A2994 RMK A01 T00631010  RH  059%=      5-min Rain = 0
KSP2 050908Z 30013KT 06/M01 A2994 RMK A01 T00631010  RH  059%=      5-min Rain = 0
KSP2 050909Z 30014KT 06/M01 A2994 RMK A01 T00631010  RH  059%=      5-min Rain = 0
KSP2 050910Z 30014KT 06/M01 A2994 RMK A01 T00631010  RH  060%=      5-min Rain = 0
KSP2 050911Z 30013KT 06/M01 A2994 RMK A01 T00631009  RH  060%=      5-min Rain = 0
KSP2 050912Z 30014KT 06/M01 A2994 RMK A01 T00631009  RH  060%=      5-min Rain = 0
KSP2 050913Z 30013KT 06/M01 A2994 RMK A01 T00631009  RH  060%=      5-min Rain = 0
KSP2 050914Z 30014KT 06/M01 A2994 RMK A01 T00621009  RH  060%=      5-min Rain = 0
KSP2 050915Z 30012KT 06/M01 A2994 RMK A01 T00621009  RH  060%=      5-min Rain = 0
KSP2 050916Z 30012G17KT 06/M01 A2994 RMK A01 T00621009  RH  061%=      5-min Rain = 0
KSP2 050917Z 29014KT 06/M01 A2994 RMK A01 T00621008  RH  061%=      5-min Rain = 0
KSP2 050918Z 30014KT 06/M01 A2994 RMK A01 T00611008  RH  061%=      5-min Rain = 0
KSP2 050919Z 30013KT 06/M01 A2994 RMK A01 T00621008  RH  061%=      5-min Rain = 0
KSP2 050920Z 30014KT 06/M01 A2994 RMK A01 T00621008  RH  061%=      5-min Rain = 0
KSP2 050921Z 30014KT 06/M01 A2994 RMK A01 T00621008  RH  061%=      5-min Rain = 0
KSP2 050922Z 30013KT 06/M01 A2994 RMK A01 T00621007  RH  061%=      5-min Rain = 0
KSP2 050923Z 30013KT 06/M01 A2995 RMK A01 T00621007  RH  061%=      5-min Rain = 0
KSP2 050924Z 30013KT 06/M01 A2995 RMK A01 T00621008  RH  061%=      5-min Rain = 0
KSP2 050925Z 30013KT 06/M01 A2995 RMK A01 T00611007  RH  061%=      5-min Rain = 0
KSP2 050926Z 30014KT 06/M01 A2995 RMK A01 T00611007  RH  062%=      5-min Rain = 0
KSP2 050927Z 30015KT 06/M01 A2995 RMK A01 T00621006  RH  062%=      5-min Rain = 0
KSP2 050928Z 30014KT 06/M01 A2995 RMK A01 T00631006  RH  062%=      5-min Rain = 0
KSP2 050929Z 30014KT 06/M01 A2995 RMK A01 T00631005  RH  061%=      5-min Rain = 0
KSP2 050930Z 30014KT 06/M01 A2995 RMK A01 T00631006  RH  062%=      5-min Rain = 0
KSP2 050931Z 30012KT 06/M01 A2995 RMK A01 T00631005  RH  062%=      5-min Rain = 0
KSP2 050932Z 30013KT 06/M01 A2995 RMK A01 T00621006  RH  062%=      5-min Rain = 0
KSP2 050933Z 29011KT 06/M01 A2995 RMK A01 T00621005  RH  062%=      5-min Rain = 0
KSP2 050934Z 30012KT 06/M01 A2995 RMK A01 T00621006  RH  062%=      5-min Rain = 0
KSP2 050935Z 30012KT 06/M01 A2995 RMK A01 T00611006  RH  062%=      5-min Rain = 0
KSP2 050936Z 30012KT 06/M01 A2995 RMK A01 T00611005  RH  063%=      5-min Rain = 0
KSP2 050937Z 29012KT 06/M01 A2995 RMK A01 T00601005  RH  063%=      5-min Rain = 0
KSP2 050938Z 29013KT 06/M01 A2995 RMK A01 T00601005  RH  063%=      5-min Rain = 0
KSP2 050939Z 30013KT 06/M01 A2995 RMK A01 T00601005  RH  063%=      5-min Rain = 0
KSP2 050940Z 30012KT 06/M00 A2995 RMK A01 T00601004  RH  063%=      5-min Rain = 0
KSP2 050941Z 30012KT 06/M00 A2995 RMK A01 T00601004  RH  064%=      5-min Rain = 0
KSP2 050942Z 30014KT 06/M00 A2995 RMK A01 T00611003  RH  064%=      5-min Rain = 0
KSP2 050943Z 30014G19KT 06/M00 A2995 RMK A01 T00611003  RH  064%=      5-min Rain = 0
KSP2 050944Z 30014KT 06/M00 A2995 RMK A01 T00621002  RH  063%=      5-min Rain = 0
KSP2 050945Z 30013KT 06/M00 A2995 RMK A01 T00621002  RH  063%=      5-min Rain = 0
KSP2 050946Z 30015KT 06/M00 A2995 RMK A01 T00621002  RH  064%=      5-min Rain = 0
KSP2 050947Z 30014KT 06/M00 A2995 RMK A01 T00621001  RH  064%=      5-min Rain = 0
KSP2 050948Z 30015KT 06/M00 A2995 RMK A01 T00631001  RH  064%=      5-min Rain = 0
KSP2 050949Z 30015KT 06/00 A2995 RMK A01 T00640000  RH  064%=      5-min Rain = 0
KSP2 050950Z 30015KT 06/00 A2995 RMK A01 T00640000  RH  064%=      5-min Rain = 0
KSP2 050951Z 30014G19KT 06/00 A2995 RMK A01 T00640000  RH  064%=      5-min Rain = 0
KSP2 050952Z 30014KT 06/00 A2995 RMK A01 T00640000  RH  064%=      5-min Rain = 0
KSP2 050953Z 30014KT 06/00 A2995 RMK A01 T00640001  RH  064%=      5-min Rain = 0
KSP2 050954Z 30014KT 06/00 A2995 RMK A01 T00640001  RH  064%=      5-min Rain = 0
KSP2 050955Z 30014G19KT 07/00 A2995 RMK A01 T00650001  RH  064%=      5-min Rain = 0
KSP2 050956Z 30013KT 06/00 A2995 RMK A01 T00640001  RH  064%=      5-min Rain = 0
KSP2 050957Z 30012KT 06/00 A2995 RMK A01 T00640001  RH  064%=      5-min Rain = 0
KSP2 050958Z 30013KT 06/00 A2995 RMK A01 T00630000  RH  064%=      5-min Rain = 0
KSP2 050959Z 30013KT 06/00 A2995 RMK A01 T00630001  RH  064%=      5-min Rain = 0
KSP2 051000Z 30015KT 06/00 A2995 RMK A01 T00630000  RH  064%=      5-min Rain = 0
KSP2 051001Z 30014KT 06/00 A2995 RMK A01 T00630001  RH  064%=      5-min Rain = 0
KSP2 051002Z 30014KT 06/00 A2995 RMK A01 T00630000  RH  064%=      5-min Rain = 0
KSP2 051003Z 30015KT 06/00 A2995 RMK A01 T00630000  RH  064%=      5-min Rain = 0
KSP2 051004Z 30013KT 06/00 A2995 RMK A01 T00630001  RH  064%=      5-min Rain = 0
KSP2 051005Z 31016KT 06/00 A2995 RMK A01 T00630001  RH  064%=      5-min Rain = 0
KSP2 051006Z 30016KT 06/00 A2995 RMK A01 T00630001  RH  064%=      5-min Rain = 0
KSP2 051007Z 30017KT 06/00 A2995 RMK A01 T00630001  RH  064%=      5-min Rain = 0
KSP2 051008Z 31015KT 06/00 A2995 RMK A01 T00640002  RH  064%=      5-min Rain = 0
KSP2 051009Z 31014KT 06/00 A2995 RMK A01 T00640002  RH  065%=      5-min Rain = 0
KSP2 051010Z 31015KT 06/00 A2995 RMK A01 T00640002  RH  065%=      5-min Rain = 0
KSP2 051011Z 31018KT 06/00 A2995 RMK A01 T00640002  RH  065%=      5-min Rain = 0
KSP2 051012Z 31016KT 06/00 A2995 RMK A01 T00640003  RH  065%=      5-min Rain = 0
KSP2 051013Z 31017KT 06/00 A2995 RMK A01 T00640003  RH  065%=      5-min Rain = 0
KSP2 051014Z 30015KT 06/00 A2995 RMK A01 T00640003  RH  065%=      5-min Rain = 0
KSP2 051015Z 31017KT 06/00 A2995 RMK A01 T00640003  RH  065%=      5-min Rain = 0
KSP2 051016Z 30016G21KT 06/00 A2995 RMK A01 T00640003  RH  065%=      5-min Rain = 0
KSP2 051017Z 30016KT 06/00 A2995 RMK A01 T00640003  RH  065%=      5-min Rain = 0
KSP2 051018Z 30017KT 07/00 A2995 RMK A01 T00650003  RH  065%=      5-min Rain = 0
KSP2 051019Z 30015KT 06/00 A2995 RMK A01 T00640003  RH  065%=      5-min Rain = 0
KSP2 051020Z 30013KT 06/00 A2995 RMK A01 T00640003  RH  065%=      5-min Rain = 0
KSP2 051021Z 30015KT 06/00 A2995 RMK A01 T00630003  RH  065%=      5-min Rain = 0
KSP2 051022Z 30017KT 06/00 A2995 RMK A01 T00630003  RH  065%=      5-min Rain = 0
KSP2 051023Z 31017KT 06/00 A2995 RMK A01 T00630003  RH  065%=      5-min Rain = 0
KSP2 051024Z 31016G21KT 06/00 A2995 RMK A01 T00630003  RH  065%=      5-min Rain = 0
KSP2 051025Z 30017KT 06/00 A2995 RMK A01 T00630003  RH  065%=      5-min Rain = 0
KSP2 051026Z 31015KT 06/00 A2995 RMK A01 T00640003  RH  065%=      5-min Rain = 0
KSP2 051027Z 30015G22KT 06/00 A2995 RMK A01 T00640003  RH  065%=      5-min Rain = 0
KSP2 051028Z 30016KT 06/00 A2995 RMK A01 T00630003  RH  065%=      5-min Rain = 0
KSP2 051029Z 30016KT 06/00 A2995 RMK A01 T00630003  RH  066%=      5-min Rain = 0
KSP2 051030Z 30016G21KT 06/00 A2995 RMK A01 T00630003  RH  066%=      5-min Rain = 0
KSP2 051031Z 30017KT 06/00 A2995 RMK A01 T00620003  RH  066%=      5-min Rain = 0
KSP2 051032Z 30015KT 06/00 A2995 RMK A01 T00620003  RH  066%=      5-min Rain = 0
KSP2 051033Z 30017KT 06/00 A2996 RMK A01 T00620003  RH  066%=      5-min Rain = 0
KSP2 051034Z 30015KT 06/00 A2996 RMK A01 T00620003  RH  066%=      5-min Rain = 0
KSP2 051035Z 30015KT 06/00 A2996 RMK A01 T00620002  RH  066%=      5-min Rain = 0
KSP2 051036Z 30016KT 06/00 A2996 RMK A01 T00620003  RH  066%=      5-min Rain = 0
KSP2 051037Z 31016KT 06/00 A2996 RMK A01 T00620003  RH  066%=      5-min Rain = 0
KSP2 051038Z 30015KT 06/00 A2996 RMK A01 T00610002  RH  066%=      5-min Rain = 0
KSP2 051039Z 30015KT 06/00 A2996 RMK A01 T00610002  RH  066%=      5-min Rain = 0
KSP2 051040Z 31014KT 06/00 A2996 RMK A01 T00610002  RH  066%=      5-min Rain = 0
KSP2 051041Z 31014KT 06/00 A2996 RMK A01 T00610002  RH  066%=      5-min Rain = 0
KSP2 051042Z 31016KT 06/00 A2996 RMK A01 T00600002  RH  066%=      5-min Rain = 0
KSP2 051043Z 30012KT 06/00 A2996 RMK A01 T00600002  RH  066%=      5-min Rain = 0
KSP2 051044Z 31012G18KT 06/00 A2996 RMK A01 T00590001  RH  066%=      5-min Rain = 0
KSP2 051045Z 31013KT 06/00 A2996 RMK A01 T00590002  RH  067%=      5-min Rain = 0
KSP2 051046Z 30014KT 06/00 A2996 RMK A01 T00590002  RH  067%=      5-min Rain = 0
KSP2 051047Z 31015KT 06/00 A2996 RMK A01 T00580001  RH  067%=      5-min Rain = 0
KSP2 051048Z 31014KT 06/00 A2997 RMK A01 T00580002  RH  067%=      5-min Rain = 0
KSP2 051049Z 31013KT 06/00 A2997 RMK A01 T00580002  RH  067%=      5-min Rain = 0
KSP2 051050Z 31012KT 06/00 A2997 RMK A01 T00580002  RH  067%=      5-min Rain = 0
KSP2 051051Z 31013KT 06/00 A2997 RMK A01 T00580002  RH  067%=      5-min Rain = 0
KSP2 051052Z 31012KT 06/00 A2997 RMK A01 T00580002  RH  067%=      5-min Rain = 0
KSP2 051053Z 31012KT 06/00 A2997 RMK A01 T00570002  RH  067%=      5-min Rain = 0
KSP2 051054Z 30013KT 06/00 A2997 RMK A01 T00570002  RH  068%=      5-min Rain = 0
KSP2 051055Z 31014KT 06/00 A2997 RMK A01 T00570002  RH  068%=      5-min Rain = 0
KSP2 051056Z 31012KT 06/00 A2997 RMK A01 T00570002  RH  068%=      5-min Rain = 0
KSP2 051057Z 31013G19KT 06/00 A2997 RMK A01 T00560002  RH  068%=      5-min Rain = 0
KSP2 051058Z 31014KT 06/00 A2997 RMK A01 T00560003  RH  069%=      5-min Rain = 0
KSP2 051059Z 31012KT 06/00 A2997 RMK A01 T00560003  RH  069%=      5-min Rain = 0
KSP2 051100Z 31014G19KT 06/00 A2997 RMK A01 T00560003  RH  069%=      5-min Rain = 0
KSP2 051101Z 31015KT 06/00 A2997 RMK A01 T00560003  RH  069%=      5-min Rain = 0
KSP2 051102Z 31013KT 06/00 A2997 RMK A01 T00560004  RH  069%=      5-min Rain = 0
KSP2 051103Z 31016KT 06/00 A2997 RMK A01 T00560004  RH  069%=      5-min Rain = 0
KSP2 051104Z 31013KT 06/00 A2997 RMK A01 T00570004  RH  069%=      5-min Rain = 0
KSP2 051105Z 31014KT 06/00 A2997 RMK A01 T00570004  RH  069%=      5-min Rain = 0
KSP2 051106Z 31015KT 06/01 A2997 RMK A01 T00570005  RH  069%=      5-min Rain = 0
KSP2 051107Z 32015KT 06/01 A2997 RMK A01 T00570005  RH  069%=      5-min Rain = 0
KSP2 051108Z 31015KT 06/01 A2997 RMK A01 T00570005  RH  069%=      5-min Rain = 0
KSP2 051109Z 32014KT 06/01 A2997 RMK A01 T00570005  RH  069%=      5-min Rain = 0
KSP2 051110Z 31014KT 06/01 A2998 RMK A01 T00570005  RH  069%=      5-min Rain = 0
KSP2 051111Z 32013KT 06/01 A2998 RMK A01 T00570005  RH  069%=      5-min Rain = 0
KSP2 051112Z 32012KT 06/01 A2998 RMK A01 T00560005  RH  069%=      5-min Rain = 0
KSP2 051113Z 32012KT 06/01 A2998 RMK A01 T00560005  RH  070%=      5-min Rain = 0
KSP2 051114Z 31014KT 06/01 A2998 RMK A01 T00560005  RH  070%=      5-min Rain = 0
KSP2 051115Z 32012KT 06/01 A2998 RMK A01 T00560005  RH  070%=      5-min Rain = 0
KSP2 051116Z 31012G17KT 06/01 A2998 RMK A01 T00560005  RH  070%=      5-min Rain = 0
KSP2 051117Z 31012KT 06/01 A2998 RMK A01 T00550005  RH  070%=      5-min Rain = 0
KSP2 051118Z 31012KT 06/01 A2998 RMK A01 T00550005  RH  070%=      5-min Rain = 0
KSP2 051119Z 31013KT 06/01 A2998 RMK A01 T00550006  RH  071%=      5-min Rain = 0
KSP2 051120Z 32012KT 06/01 A2998 RMK A01 T00550006  RH  071%=      5-min Rain = 0
KSP2 051121Z 31012KT 06/01 A2998 RMK A01 T00550006  RH  071%=      5-min Rain = 0
KSP2 051122Z 32011KT 06/01 A2998 RMK A01 T00550006  RH  071%=      5-min Rain = 0
KSP2 051123Z 32011KT 06/01 A2998 RMK A01 T00550006  RH  071%=      5-min Rain = 0
KSP2 051124Z 32009KT 06/01 A2998 RMK A01 T00550006  RH  071%=      5-min Rain = 0
KSP2 051125Z 32010KT 06/01 A2998 RMK A01 T00550006  RH  071%=      5-min Rain = 0
KSP2 051126Z 32009KT 05/01 A2998 RMK A01 T00540006  RH  071%=      5-min Rain = 0
KSP2 051127Z 32009KT 05/01 A2998 RMK A01 T00540006  RH  071%=      5-min Rain = 0
KSP2 051128Z 31009KT 05/01 A2998 RMK A01 T00540006  RH  071%=      5-min Rain = 0
KSP2 051129Z 31009KT 05/01 A2998 RMK A01 T00540006  RH  071%=      5-min Rain = 0
KSP2 051130Z 31009KT 05/01 A2998 RMK A01 T00530006  RH  072%=      5-min Rain = 0
KSP2 051131Z 31009KT 05/01 A2998 RMK A01 T00530006  RH  072%=      5-min Rain = 0
KSP2 051132Z 31008KT 05/01 A2998 RMK A01 T00520005  RH  072%=      5-min Rain = 0
KSP2 051133Z 31009KT 05/01 A2998 RMK A01 T00520005  RH  072%=      5-min Rain = 0
KSP2 051134Z 31009KT 05/01 A2998 RMK A01 T00510005  RH  072%=      5-min Rain = 0
KSP2 051135Z 31008KT 05/01 A2998 RMK A01 T00510006  RH  073%=      5-min Rain = 0
KSP2 051136Z 31008KT 05/01 A2998 RMK A01 T00510006  RH  073%=      5-min Rain = 0
KSP2 051137Z 31009KT 05/01 A2998 RMK A01 T00510006  RH  073%=      5-min Rain = 0
KSP2 051138Z 30008KT 05/01 A2998 RMK A01 T00520007  RH  073%=      5-min Rain = 0
KSP2 051139Z 31008KT 05/01 A2998 RMK A01 T00520007  RH  073%=      5-min Rain = 0
KSP2 051140Z 31010KT 05/01 A2998 RMK A01 T00520007  RH  073%=      5-min Rain = 0
KSP2 051141Z 31008KT 05/01 A2998 RMK A01 T00520007  RH  073%=      5-min Rain = 0
KSP2 051142Z 31008KT 05/01 A2998 RMK A01 T00530007  RH  073%=      5-min Rain = 0
KSP2 051143Z 30009KT 05/01 A2998 RMK A01 T00530008  RH  073%=      5-min Rain = 0
KSP2 051144Z 31009KT 05/01 A2998 RMK A01 T00530008  RH  073%=      5-min Rain = 0
KSP2 051145Z 30009KT 05/01 A2998 RMK A01 T00540009  RH  073%=      5-min Rain = 0
KSP2 051146Z 30011KT 06/01 A2998 RMK A01 T00550010  RH  073%=      5-min Rain = 0
KSP2 051147Z 30011KT 06/01 A2998 RMK A01 T00550010  RH  073%=      5-min Rain = 0
KSP2 051148Z 30011KT 06/01 A2998 RMK A01 T00560011  RH  073%=      5-min Rain = 0
KSP2 051149Z 31010KT 06/01 A2998 RMK A01 T00570011  RH  072%=      5-min Rain = 0
KSP2 051150Z 30010KT 06/01 A2998 RMK A01 T00580011  RH  072%=      5-min Rain = 0
KSP2 051151Z 31010KT 06/01 A2998 RMK A01 T00580012  RH  072%=      5-min Rain = 0
KSP2 051152Z 32010KT 06/01 A2999 RMK A01 T00580012  RH  072%=      5-min Rain = 0
KSP2 051153Z 31008KT 06/01 A2999 RMK A01 T00580012  RH  072%=      5-min Rain = 0
KSP2 051154Z 32009KT 06/01 A2999 RMK A01 T00590012  RH  072%=      5-min Rain = 0
KSP2 051155Z 32010KT 06/01 A2999 RMK A01 T00590013  RH  072%=      5-min Rain = 0
KSP2 051156Z 32010KT 06/01 A2999 RMK A01 T00600013  RH  072%=      5-min Rain = 0
KSP2 051157Z 31010KT 06/01 A2999 RMK A01 T00610014  RH  072%=      5-min Rain = 0
KSP2 051158Z 31010KT 06/01 A2999 RMK A01 T00610014  RH  072%=      5-min Rain = 0
KSP2 051159Z 30010KT 06/01 A2999 RMK A01 T00620014  RH  071%=      5-min Rain = 0
KSP2 051200Z 30013KT 06/01 A2999 RMK A01 T00620014  RH  071%=      5-min Rain = 0
KSP2 051201Z 30012KT 06/01 A2998 RMK A01 T00630014  RH  071%=      5-min Rain = 0
KSP2 051202Z 30012KT 06/01 A2998 RMK A01 T00630014  RH  071%=      5-min Rain = 0
KSP2 051203Z 29012KT 06/01 A2998 RMK A01 T00630014  RH  071%=      5-min Rain = 0
KSP2 051204Z 30011KT 06/02 A2998 RMK A01 T00640015  RH  071%=      5-min Rain = 0
KSP2 051205Z 30011KT 06/01 A2998 RMK A01 T00640014  RH  071%=      5-min Rain = 0
KSP2 051206Z 30011KT 06/02 A2999 RMK A01 T00640015  RH  071%=      5-min Rain = 0
KSP2 051207Z 30011KT 06/02 A2999 RMK A01 T00640015  RH  071%=      5-min Rain = 0
KSP2 051208Z 31010KT 07/02 A2999 RMK A01 T00650016  RH  071%=      5-min Rain = 0
KSP2 051209Z 31010KT 07/02 A2999 RMK A01 T00650016  RH  071%=      5-min Rain = 0
KSP2 051210Z 31008KT 07/02 A2999 RMK A01 T00660016  RH  071%=      5-min Rain = 0
KSP2 051211Z 31009KT 07/02 A2999 RMK A01 T00660016  RH  070%=      5-min Rain = 0
KSP2 051212Z 31010KT 07/02 A2999 RMK A01 T00660016  RH  070%=      5-min Rain = 0
KSP2 051213Z 30011KT 07/02 A2999 RMK A01 T00670017  RH  070%=      5-min Rain = 0
KSP2 051214Z 31010KT 07/02 A30 RMK A01 T00680017  RH  070%=      5-min Rain = 0
KSP2 051215Z 30011KT 07/02 A2999 RMK A01 T00680017  RH  070%=      5-min Rain = 0
KSP2 051216Z 30011KT 07/02 A2999 RMK A01 T00690017  RH  070%=      5-min Rain = 0
KSP2 051217Z 30011KT 07/02 A2999 RMK A01 T00690017  RH  069%=      5-min Rain = 0
KSP2 051218Z 30011KT 07/02 A2999 RMK A01 T00700017  RH  069%=      5-min Rain = 0
KSP2 051219Z 30012KT 07/02 A2999 RMK A01 T00700018  RH  069%=      5-min Rain = 0
KSP2 051220Z 30012KT 07/02 A2999 RMK A01 T00710018  RH  069%=      5-min Rain = 0
KSP2 051221Z 30012KT 07/02 A2999 RMK A01 T00710018  RH  069%=      5-min Rain = 0
KSP2 051222Z 30011KT 07/02 A2999 RMK A01 T00710018  RH  069%=      5-min Rain = 0
KSP2 051223Z 30010KT 07/02 A2999 RMK A01 T00710018  RH  069%=      5-min Rain = 0
KSP2 051224Z 30011KT 07/02 A2999 RMK A01 T00720018  RH  069%=      5-min Rain = 0
KSP2 051225Z 30010KT 07/02 A2999 RMK A01 T00720019  RH  069%=      5-min Rain = 0
KSP2 051226Z 31011KT 07/02 A2999 RMK A01 T00720019  RH  069%=      5-min Rain = 0
KSP2 051227Z 30009KT 07/02 A2999 RMK A01 T00730019  RH  069%=      5-min Rain = 0
KSP2 051228Z 30009KT 07/02 A2999 RMK A01 T00730019  RH  069%=      5-min Rain = 0
KSP2 051229Z 30011KT 07/02 A2999 RMK A01 T00730019  RH  069%=      5-min Rain = 0
KSP2 051230Z 31010KT 07/02 A2999 RMK A01 T00730019  RH  069%=      5-min Rain = 0
KSP2 051231Z 31009KT 07/02 A2999 RMK A01 T00730019  RH  069%=      5-min Rain = 0
KSP2 051232Z 31010KT 07/02 A2999 RMK A01 T00730019  RH  069%=      5-min Rain = 0
KSP2 051233Z 30010KT 07/02 A2999 RMK A01 T00720020  RH  069%=      5-min Rain = 0
KSP2 051234Z 30010KT 07/02 A2999 RMK A01 T00730020  RH  069%=      5-min Rain = 0
KSP2 051235Z 30011KT 07/02 A2999 RMK A01 T00730021  RH  069%=      5-min Rain = 0
KSP2 051236Z 30012KT 07/02 A2999 RMK A01 T00730021  RH  069%=      5-min Rain = 0
KSP2 051237Z 30011KT 07/02 A2999 RMK A01 T00740021  RH  069%=      5-min Rain = 0
KSP2 051238Z 31012KT 07/02 A2999 RMK A01 T00740021  RH  069%=      5-min Rain = 0
KSP2 051239Z 31010KT 08/02 A2999 RMK A01 T00750021  RH  069%=      5-min Rain = 0
KSP2 051240Z 31010KT 08/02 A2999 RMK A01 T00750021  RH  069%=      5-min Rain = 0
KSP2 051241Z 31010KT 08/02 A2999 RMK A01 T00750022  RH  069%=      5-min Rain = 0
KSP2 051242Z 31010KT 08/02 A2999 RMK A01 T00750022  RH  069%=      5-min Rain = 0
KSP2 051243Z 31011KT 08/02 A2999 RMK A01 T00750022  RH  069%=      5-min Rain = 0
KSP2 051244Z 30011KT 08/02 A2999 RMK A01 T00750022  RH  069%=      5-min Rain = 0
KSP2 051245Z 30013KT 08/02 A2999 RMK A01 T00750022  RH  069%=      5-min Rain = 0
KSP2 051246Z 31013KT 07/02 A2999 RMK A01 T00740023  RH  070%=      5-min Rain = 0
KSP2 051247Z 31013KT 08/02 A2999 RMK A01 T00750023  RH  070%=      5-min Rain = 0
KSP2 051248Z 31012KT 08/02 A2999 RMK A01 T00750023  RH  070%=      5-min Rain = 0
KSP2 051249Z 31012KT 08/02 A2999 RMK A01 T00750023  RH  070%=      5-min Rain = 0
KSP2 051250Z 31012KT 08/02 A2999 RMK A01 T00750023  RH  070%=      5-min Rain = 0
KSP2 051251Z 31010KT 07/02 A2999 RMK A01 T00740023  RH  070%=      5-min Rain = 0
KSP2 051252Z 31012KT 07/02 A2999 RMK A01 T00740023  RH  070%=      5-min Rain = 0
KSP2 051253Z 31011KT 07/02 A2999 RMK A01 T00730024  RH  071%=      5-min Rain = 0
KSP2 051254Z 31011KT 07/02 A2999 RMK A01 T00730024  RH  071%=      5-min Rain = 0
KSP2 051255Z 31011KT 07/02 A2999 RMK A01 T00730024  RH  071%=      5-min Rain = 0
KSP2 051256Z 31010KT 07/02 A30 RMK A01 T00730024  RH  071%=      5-min Rain = 0
KSP2 051257Z 32010KT 07/03 A30 RMK A01 T00730025  RH  071%=      5-min Rain = 0
KSP2 051258Z 32011KT 07/03 A30 RMK A01 T00730025  RH  071%=      5-min Rain = 0
KSP2 051259Z 32010KT 07/03 A30 RMK A01 T00740025  RH  071%=      5-min Rain = 0
KSP2 051300Z 32008KT 07/03 A30 RMK A01 T00740025  RH  071%=      5-min Rain = 0
KSP2 051301Z 32009KT 07/03 A30 RMK A01 T00730025  RH  071%=      5-min Rain = 0
KSP2 051302Z 32010KT 07/03 A30 RMK A01 T00730025  RH  072%=      5-min Rain = 0
KSP2 051303Z 32010KT 07/03 A30 RMK A01 T00730026  RH  072%=      5-min Rain = 0
KSP2 051304Z 32009KT 07/03 A30 RMK A01 T00730026  RH  072%=      5-min Rain = 0
KSP2 051305Z 32009KT 07/03 A30 RMK A01 T00730026  RH  072%=      5-min Rain = 0
KSP2 051306Z 32008KT 07/03 A3001 RMK A01 T00720025  RH  072%=      5-min Rain = 0
KSP2 051307Z 32009KT 07/03 A30 RMK A01 T00710026  RH  073%=      5-min Rain = 0
KSP2 051308Z 32008KT 07/03 A3001 RMK A01 T00710027  RH  073%=      5-min Rain = 0
KSP2 051309Z 32009KT 07/03 A3001 RMK A01 T00710027  RH  073%=      5-min Rain = 0
KSP2 051310Z 32009KT 07/03 A3001 RMK A01 T00710027  RH  074%=      5-min Rain = 0
KSP2 051311Z 32008KT 07/03 A30 RMK A01 T00710028  RH  074%=      5-min Rain = 0
KSP2 051312Z 32009KT 07/03 A30 RMK A01 T00720028  RH  074%=      5-min Rain = 0
KSP2 051313Z 32009KT 07/03 A30 RMK A01 T00710028  RH  074%=      5-min Rain = 0
KSP2 051314Z 32009KT 07/03 A30 RMK A01 T00710029  RH  074%=      5-min Rain = 0
KSP2 051315Z 32009KT 07/03 A30 RMK A01 T00710029  RH  075%=      5-min Rain = 0
KSP2 051316Z 32009KT 07/03 A30 RMK A01 T00710029  RH  075%=      5-min Rain = 0
KSP2 051317Z 32009KT 07/03 A30 RMK A01 T00700029  RH  075%=      5-min Rain = 0
KSP2 051318Z 33009KT 07/03 A3001 RMK A01 T00700029  RH  075%=      5-min Rain = 0
KSP2 051319Z 32011KT 07/03 A3001 RMK A01 T00700030  RH  076%=      5-min Rain = 0
KSP2 051320Z 33010KT 07/03 A3001 RMK A01 T00710031  RH  076%=      5-min Rain = 0
KSP2 051321Z 33010KT 07/03 A3001 RMK A01 T00710031  RH  076%=      5-min Rain = 0
KSP2 051322Z 33011KT 07/03 A3001 RMK A01 T00710031  RH  076%=      5-min Rain = 0
KSP2 051323Z 33011KT 07/03 A3001 RMK A01 T00710032  RH  076%=      5-min Rain = 0
KSP2 051324Z 33011KT 07/03 A3001 RMK A01 T00710033  RH  076%=      5-min Rain = 0
KSP2 051325Z 33010KT 07/03 A3001 RMK A01 T00720033  RH  076%=      5-min Rain = 0
KSP2 051326Z 33011KT 07/03 A3001 RMK A01 T00720033  RH  076%=      5-min Rain = 0
KSP2 051327Z 33011KT 07/03 A3001 RMK A01 T00720034  RH  077%=      5-min Rain = 0
KSP2 051328Z 33011KT 07/03 A3001 RMK A01 T00720034  RH  077%=      5-min Rain = 0
KSP2 051329Z 32010KT 07/04 A3001 RMK A01 T00720035  RH  077%=      5-min Rain = 0
KSP2 051330Z 33010KT 07/03 A3001 RMK A01 T00720034  RH  077%=      5-min Rain = 0
KSP2 051331Z 32010KT 07/03 A3002 RMK A01 T00710034  RH  077%=      5-min Rain = 0
KSP2 051332Z 32011KT 07/04 A3001 RMK A01 T00720036  RH  078%=      5-min Rain = 0
KSP2 051333Z 33011KT 07/04 A3001 RMK A01 T00740038  RH  078%=      5-min Rain = 0
KSP2 051334Z 33012G17KT 08/04 A3002 RMK A01 T00750038  RH  077%=      5-min Rain = 0
KSP2 051335Z 32013KT 08/04 A3002 RMK A01 T00770041  RH  078%=      5-min Rain = 0
KSP2 051336Z 33013KT 08/04 A3002 RMK A01 T00790042  RH  077%=      5-min Rain = 0
KSP2 051337Z 33014KT 08/04 A3002 RMK A01 T00800042  RH  077%=      5-min Rain = 0
KSP2 051338Z 33011KT 08/04 A3002 RMK A01 T00810043  RH  077%=      5-min Rain = 0
KSP2 051339Z 33012KT 08/04 A3002 RMK A01 T00820043  RH  076%=      5-min Rain = 0
KSP2 051340Z 33014G19KT 08/04 A3002 RMK A01 T00820043  RH  077%=      5-min Rain = 0
KSP2 051341Z 34012KT 08/04 A3003 RMK A01 T00820044  RH  077%=      5-min Rain = 0
KSP2 051342Z 34014KT 08/04 A3003 RMK A01 T00820044  RH  077%=      5-min Rain = 0
KSP2 051343Z 34018G24KT 08/04 A3003 RMK A01 T00820044  RH  077%=      5-min Rain = 0
KSP2 051344Z 34019G24KT 08/04 A3003 RMK A01 T00830044  RH  076%=      5-min Rain = 0
KSP2 051345Z 34017G23KT 08/04 A3003 RMK A01 T00830043  RH  076%=      5-min Rain = 0
KSP2 051346Z 35021G27KT 08/04 A3003 RMK A01 T00830044  RH  076%=      5-min Rain = 0
KSP2 051347Z 35020KT 08/04 A3003 RMK A01 T00830044  RH  076%=      5-min Rain = 0
KSP2 051348Z 34020KT 08/04 A3004 RMK A01 T00830044  RH  076%=      5-min Rain = 0
KSP2 051349Z 35020KT 08/04 A3004 RMK A01 T00830044  RH  076%=      5-min Rain = 0
KSP2 051350Z 35019KT 08/04 A3004 RMK A01 T00830044  RH  076%=      5-min Rain = 0
KSP2 051351Z 35015KT 08/04 A3004 RMK A01 T00830044  RH  076%=      5-min Rain = 0
KSP2 051352Z 35017KT 08/04 A3004 RMK A01 T00830044  RH  076%=      5-min Rain = 0
KSP2 051353Z 35015KT 08/04 A3004 RMK A01 T00830044  RH  077%=      5-min Rain = 0
KSP2 051354Z 34018G23KT 08/04 A3004 RMK A01 T00820044  RH  077%=      5-min Rain = 0
KSP2 051355Z 34018G24KT 08/04 A3004 RMK A01 T00820044  RH  077%=      5-min Rain = 0
KSP2 051356Z 35019G24KT 08/04 A3004 RMK A01 T00820044  RH  077%=      5-min Rain = 0
KSP2 051357Z 35017G24KT 08/04 A3004 RMK A01 T00820044  RH  077%=      5-min Rain = 0
KSP2 051358Z 35019G24KT 08/04 A3004 RMK A01 T00810043  RH  077%=      5-min Rain = 0
KSP2 051359Z 34016KT 08/04 A3004 RMK A01 T00810043  RH  077%=      5-min Rain = 0
KSP2 051400Z 35018KT 08/04 A3004 RMK A01 T00800043  RH  077%=      5-min Rain = 0
KSP2 051401Z 35016KT 08/04 A3004 RMK A01 T00810043  RH  077%=      5-min Rain = 0
KSP2 051402Z 35016G21KT 08/04 A3004 RMK A01 T00810043  RH  077%=      5-min Rain = 0
KSP2 051403Z 35018KT 08/04 A3005 RMK A01 T00820044  RH  077%=      5-min Rain = 0
KSP2 051404Z 35018KT 08/04 A3005 RMK A01 T00830044  RH  076%=      5-min Rain = 0
KSP2 051405Z 35019KT 08/04 A3005 RMK A01 T00830044  RH  076%=      5-min Rain = 0
KSP2 051406Z 35018KT 08/04 A3005 RMK A01 T00830044  RH  076%=      5-min Rain = 0
KSP2 051407Z 34017KT 08/04 A3005 RMK A01 T00830044  RH  076%=      5-min Rain = 0
KSP2 051408Z 35019KT 08/04 A3005 RMK A01 T00830044  RH  076%=      5-min Rain = 0
KSP2 051409Z 35018G23KT 08/04 A3005 RMK A01 T00830044  RH  076%=      5-min Rain = 0
KSP2 051410Z 35016KT 08/04 A3005 RMK A01 T00830044  RH  076%=      5-min Rain = 0
KSP2 051411Z 35019KT 08/04 A3005 RMK A01 T00840044  RH  076%=      5-min Rain = 0
KSP2 051412Z 35016G21KT 08/04 A3005 RMK A01 T00840044  RH  076%=      5-min Rain = 0
KSP2 051413Z 35016KT 08/04 A3005 RMK A01 T00840044  RH  076%=      5-min Rain = 0
KSP2 051414Z 35016KT 08/04 A3006 RMK A01 T00840044  RH  076%=      5-min Rain = 0
KSP2 051415Z 35019KT 08/04 A3006 RMK A01 T00840044  RH  076%=      5-min Rain = 0
KSP2 051416Z 35018KT 08/04 A3006 RMK A01 T00840044  RH  076%=      5-min Rain = 0
KSP2 051417Z 36019KT 08/04 A3006 RMK A01 T00840044  RH  076%=      5-min Rain = 0
KSP2 051418Z 35018KT 08/04 A3006 RMK A01 T00840044  RH  076%=      5-min Rain = 0
KSP2 051419Z 35018KT 08/04 A3006 RMK A01 T00840044  RH  076%=      5-min Rain = 0
KSP2 051420Z 35017KT 08/04 A3006 RMK A01 T00840044  RH  076%=      5-min Rain = 0
KSP2 051421Z 35018KT 08/04 A3006 RMK A01 T00840044  RH  076%=      5-min Rain = 0
KSP2 051422Z 36017KT 08/04 A3006 RMK A01 T00840044  RH  076%=      5-min Rain = 0
KSP2 051423Z 36015KT 08/04 A3006 RMK A01 T00840044  RH  076%=      5-min Rain = 0
KSP2 051424Z 36018KT 08/04 A3006 RMK A01 T00840044  RH  076%=      5-min Rain = 0
KSP2 051425Z 36018KT 08/04 A3006 RMK A01 T00840044  RH  076%=      5-min Rain = 0
KSP2 051426Z 35020KT 08/04 A3006 RMK A01 T00840044  RH  076%=      5-min Rain = 0
KSP2 051427Z 35018KT 08/04 A3007 RMK A01 T00840044  RH  076%=      5-min Rain = 0
KSP2 051428Z 35018KT 08/04 A3007 RMK A01 T00840044  RH  076%=      5-min Rain = 0
KSP2 051429Z 35018KT 08/04 A3007 RMK A01 T00840044  RH  076%=      5-min Rain = 0
KSP2 051430Z 35019G25KT 08/04 A3007 RMK A01 T00840043  RH  076%=      5-min Rain = 0
KSP2 051431Z 36020KT 08/04 A3007 RMK A01 T00840043  RH  076%=      5-min Rain = 0
KSP2 051432Z 36021KT 08/04 A3007 RMK A01 T00840043  RH  076%=      5-min Rain = 0
KSP2 051433Z 36018KT 08/04 A3007 RMK A01 T00830043  RH  076%=      5-min Rain = 0
KSP2 051434Z 00019KT 08/04 A3007 RMK A01 T00830043  RH  076%=      5-min Rain = 0
KSP2 051435Z 36020KT 08/04 A3007 RMK A01 T00830043  RH  075%=      5-min Rain = 0
KSP2 051436Z 00019G24KT 08/04 A3007 RMK A01 T00830042  RH  075%=      5-min Rain = 0
KSP2 051437Z 36022KT 08/04 A3008 RMK A01 T00830042  RH  075%=      5-min Rain = 0
KSP2 051438Z 36019KT 08/04 A3008 RMK A01 T00830042  RH  075%=      5-min Rain = 0
KSP2 051439Z 36020G25KT 08/04 A3008 RMK A01 T00830043  RH  075%=      5-min Rain = 0
KSP2 051440Z 36019KT 08/04 A3008 RMK A01 T00830042  RH  075%=      5-min Rain = 0
KSP2 051441Z 01016KT 08/04 A3008 RMK A01 T00830042  RH  075%=      5-min Rain = 0
KSP2 051442Z 00019KT 08/04 A3008 RMK A01 T00840042  RH  075%=      5-min Rain = 0
KSP2 051443Z 00019G24KT 08/04 A3008 RMK A01 T00840042  RH  075%=      5-min Rain = 0
KSP2 051444Z 00023G28KT 08/04 A3008 RMK A01 T00840042  RH  075%=      5-min Rain = 0
KSP2 051445Z 00021KT 08/04 A3009 RMK A01 T00840041  RH  075%=      5-min Rain = 0
KSP2 051446Z 00016G21KT 08/04 A3009 RMK A01 T00840042  RH  075%=      5-min Rain = 0
KSP2 051447Z 00015G21KT 08/04 A3009 RMK A01 T00840042  RH  075%=      5-min Rain = 0
KSP2 051448Z 00016KT 08/04 A3009 RMK A01 T00840042  RH  075%=      5-min Rain = 0
KSP2 051449Z 01016KT 08/04 A3009 RMK A01 T00840042  RH  075%=      5-min Rain = 0
KSP2 051450Z 01013KT 09/04 A3009 RMK A01 T00850042  RH  074%=      5-min Rain = 0
KSP2 051451Z 36016G21KT 09/04 A3008 RMK A01 T00860042  RH  074%=      5-min Rain = 0
KSP2 051452Z 01018KT 09/04 A3009 RMK A01 T00860042  RH  074%=      5-min Rain = 0
KSP2 051453Z 01014KT 09/04 A3009 RMK A01 T00870042  RH  073%=      5-min Rain = 0
KSP2 051454Z 01013KT 09/04 A3009 RMK A01 T00870042  RH  073%=      5-min Rain = 0
KSP2 051455Z 00017KT 09/04 A3009 RMK A01 T00890043  RH  073%=      5-min Rain = 0
KSP2 051456Z 01016G22KT 09/04 A3009 RMK A01 T00900042  RH  072%=      5-min Rain = 0
KSP2 051457Z 01019KT 09/04 A3009 RMK A01 T00910042  RH  071%=      5-min Rain = 0
KSP2 051458Z 01020KT 09/04 A3009 RMK A01 T00910041  RH  071%=      5-min Rain = 0
KSP2 051459Z 36018KT 09/04 A3009 RMK A01 T00910041  RH  071%=      5-min Rain = 0
KSP2 051500Z 00018KT 09/04 A3009 RMK A01 T00920042  RH  071%=      5-min Rain = 0
KSP2 051501Z 01015KT 09/04 A3009 RMK A01 T00930041  RH  070%=      5-min Rain = 0
KSP2 051502Z 01013KT 09/04 A3009 RMK A01 T00940043  RH  070%=      5-min Rain = 0
KSP2 051503Z 01014KT 10/04 A3009 RMK A01 T00950042  RH  069%=      5-min Rain = 0
KSP2 051504Z 00015KT 10/04 A3009 RMK A01 T00960042  RH  069%=      5-min Rain = 0
KSP2 051505Z 01018KT 10/04 A3009 RMK A01 T00960041  RH  069%=      5-min Rain = 0
KSP2 051506Z 01018KT 10/04 A3009 RMK A01 T00950041  RH  069%=      5-min Rain = 0
KSP2 051507Z 01015G20KT 10/04 A301 RMK A01 T00960041  RH  069%=      5-min Rain = 0
KSP2 051508Z 02017KT 10/04 A301 RMK A01 T00970042  RH  068%=      5-min Rain = 0
KSP2 051509Z 02016KT 10/04 A301 RMK A01 T00980041  RH  068%=      5-min Rain = 0
KSP2 051510Z 01015KT 10/04 A301 RMK A01 T00990042  RH  067%=      5-min Rain = 0
KSP2 051511Z 01015KT 10/04 A3011 RMK A01 T01010043  RH  067%=      5-min Rain = 0
KSP2 051512Z 01020G26KT 10/04 A301 RMK A01 T01010042  RH  067%=      5-min Rain = 0
KSP2 051513Z 01023KT 10/04 A301 RMK A01 T00990040  RH  067%=      5-min Rain = 0
KSP2 051514Z 01022KT 10/04 A3011 RMK A01 T00970040  RH  068%=      5-min Rain = 0
KSP2 051515Z 02021G26KT 10/04 A3011 RMK A01 T00970041  RH  068%=      5-min Rain = 0
KSP2 051516Z 01021KT 10/04 A3011 RMK A01 T00970041  RH  068%=      5-min Rain = 0
KSP2 051517Z 01020KT 10/04 A3011 RMK A01 T00970041  RH  068%=      5-min Rain = 0
KSP2 051518Z 00019KT 10/04 A3011 RMK A01 T00980042  RH  068%=      5-min Rain = 0
KSP2 051519Z 01019G25KT 10/04 A3011 RMK A01 T00980042  RH  068%=      5-min Rain = 0
KSP2 051520Z 01021KT 10/04 A3011 RMK A01 T00980041  RH  067%=      5-min Rain = 0
KSP2 051521Z 01021KT 10/04 A3011 RMK A01 T00970040  RH  068%=      5-min Rain = 0
KSP2 051522Z 36020G25KT 10/04 A3012 RMK A01 T00960040  RH  068%=      5-min Rain = 0
KSP2 051523Z 01022G28KT 09/04 A3012 RMK A01 T00940039  RH  069%=      5-min Rain = 0
KSP2 051524Z 00026KT 09/04 A3012 RMK A01 T00920039  RH  069%=      5-min Rain = 0
KSP2 051525Z 00022G27KT 09/04 A3012 RMK A01 T00910038  RH  070%=      5-min Rain = 0
KSP2 051526Z 01023G28KT 09/04 A3012 RMK A01 T00900038  RH  070%=      5-min Rain = 0
KSP2 051527Z 00024KT 09/04 A3012 RMK A01 T00890037  RH  070%=      5-min Rain = 0
KSP2 051528Z 36022G28KT 09/04 A3012 RMK A01 T00870037  RH  071%=      5-min Rain = 0
KSP2 051529Z 36024KT 09/04 A3012 RMK A01 T00870037  RH  071%=      5-min Rain = 0
KSP2 051530Z 36025KT 09/04 A3013 RMK A01 T00860036  RH  071%=      5-min Rain = 0
KSP2 051531Z 00023G28KT 09/04 A3013 RMK A01 T00850035  RH  071%=      5-min Rain = 0
KSP2 051532Z 00022KT 08/04 A3013 RMK A01 T00840036  RH  072%=      5-min Rain = 0
KSP2 051533Z 00022G27KT 08/04 A3013 RMK A01 T00840037  RH  072%=      5-min Rain = 0
KSP2 051534Z 36022KT 08/04 A3013 RMK A01 T00840037  RH  072%=      5-min Rain = 0
KSP2 051535Z 36021KT 08/04 A3013 RMK A01 T00840037  RH  072%=      5-min Rain = 0
KSP2 051536Z 36021G26KT 08/04 A3013 RMK A01 T00840038  RH  073%=      5-min Rain = 0
KSP2 051537Z 36020KT 08/04 A3013 RMK A01 T00830037  RH  073%=      5-min Rain = 0
KSP2 051538Z 00023KT 08/04 A3013 RMK A01 T00830037  RH  073%=      5-min Rain = 0
KSP2 051539Z 36019KT 08/04 A3014 RMK A01 T00820038  RH  073%=      5-min Rain = 0
KSP2 051540Z 00021KT 08/04 A3014 RMK A01 T00820038  RH  074%=      5-min Rain = 0
KSP2 051541Z 36020G25KT 08/04 A3014 RMK A01 T00820039  RH  074%=      5-min Rain = 0
KSP2 051542Z 00020KT 08/04 A3014 RMK A01 T00820040  RH  075%=      5-min Rain = 0
KSP2 051543Z 00018G23KT 08/04 A3014 RMK A01 T00820041  RH  075%=      5-min Rain = 0
KSP2 051544Z 01022KT 08/04 A3014 RMK A01 T00810042  RH  076%=      5-min Rain = 0
KSP2 051545Z 00018KT 08/04 A3014 RMK A01 T00800042  RH  077%=      5-min Rain = 0
KSP2 051546Z 00018KT 08/04 A3014 RMK A01 T00800044  RH  078%=      5-min Rain = 0
KSP2 051547Z 00019KT 08/04 A3014 RMK A01 T00790044  RH  079%=      5-min Rain = 0
KSP2 051548Z 36018KT 08/05 A3014 RMK A01 T00790045  RH  079%=      5-min Rain = 0
KSP2 051549Z 36017G22KT 08/05 A3014 RMK A01 T00790046  RH  080%=      5-min Rain = 0
KSP2 051550Z 36017KT 08/05 A3014 RMK A01 T00790046  RH  080%=      5-min Rain = 0
KSP2 051551Z 00018KT 08/05 A3014 RMK A01 T00790047  RH  080%=      5-min Rain = 0
KSP2 051552Z 35019G24KT 08/05 A3014 RMK A01 T00790047  RH  080%=      5-min Rain = 0
KSP2 051553Z 36021KT 08/05 A3015 RMK A01 T00790048  RH  080%=      5-min Rain = 0
KSP2 051554Z 36018KT 08/05 A3015 RMK A01 T00790047  RH  080%=      5-min Rain = 0
KSP2 051555Z 36019KT 08/05 A3015 RMK A01 T00780047  RH  081%=      5-min Rain = 0
KSP2 051556Z 35020KT 08/05 A3015 RMK A01 T00790047  RH  081%=      5-min Rain = 0
KSP2 051557Z 36018KT 08/05 A3015 RMK A01 T00790047  RH  080%=      5-min Rain = 0
KSP2 051558Z 00019KT 08/05 A3015 RMK A01 T00790048  RH  080%=      5-min Rain = 0
KSP2 051559Z 36017KT 08/05 A3015 RMK A01 T00790048  RH  081%=      5-min Rain = 0
KSP2 051600Z 35017KT 08/05 A3015 RMK A01 T00800048  RH  081%=      5-min Rain = 0
KSP2 051601Z 36019KT 08/05 A3015 RMK A01 T00800048  RH  080%=      5-min Rain = 0
KSP2 051602Z 36017KT 08/05 A3015 RMK A01 T00800048  RH  081%=      5-min Rain = 0
KSP2 051603Z 35013KT 08/05 A3015 RMK A01 T00800049  RH  081%=      5-min Rain = 0
KSP2 051604Z 35015G20KT 08/05 A3015 RMK A01 T00810049  RH  080%=      5-min Rain = 0
KSP2 051605Z 35017KT 08/05 A3015 RMK A01 T00800049  RH  080%=      5-min Rain = 0
KSP2 051606Z 36014KT 08/05 A3015 RMK A01 T00810049  RH  081%=      5-min Rain = 0
KSP2 051607Z 35017KT 08/05 A3015 RMK A01 T00810050  RH  081%=      5-min Rain = 0
KSP2 051608Z 35017KT 08/05 A3015 RMK A01 T00810050  RH  081%=      5-min Rain = 0
KSP2 051609Z 36017G22KT 08/05 A3015 RMK A01 T00810051  RH  081%=      5-min Rain = 0
KSP2 051610Z 36020KT 08/05 A3015 RMK A01 T00820051  RH  081%=      5-min Rain = 0
KSP2 051611Z 35019G24KT 08/05 A3015 RMK A01 T00820052  RH  081%=      5-min Rain = 0
KSP2 051612Z 35017KT 08/05 A3015 RMK A01 T00820052  RH  081%=      5-min Rain = 0
KSP2 051613Z 36020KT 08/05 A3016 RMK A01 T00840053  RH  081%=      5-min Rain = 0
KSP2 051614Z 35018KT 08/05 A3016 RMK A01 T00840052  RH  080%=      5-min Rain = 0
KSP2 051615Z 35019KT 08/05 A3016 RMK A01 T00840052  RH  080%=      5-min Rain = 0
KSP2 051616Z 36016G22KT 08/05 A3016 RMK A01 T00840052  RH  080%=      5-min Rain = 0
KSP2 051617Z 36021G26KT 09/05 A3016 RMK A01 T00850053  RH  080%=      5-min Rain = 0
KSP2 051618Z 35019G24KT 09/05 A3016 RMK A01 T00850053  RH  080%=      5-min Rain = 0
KSP2 051619Z 35017KT 08/05 A3016 RMK A01 T00840053  RH  081%=      5-min Rain = 0
KSP2 051620Z 35019KT 08/05 A3016 RMK A01 T00840053  RH  081%=      5-min Rain = 0
KSP2 051621Z 35019KT 08/05 A3016 RMK A01 T00830053  RH  081%=      5-min Rain = 0
KSP2 051622Z 35020KT 08/05 A3016 RMK A01 T00820053  RH  082%=      5-min Rain = 0
KSP2 051623Z 35017KT 08/05 A3016 RMK A01 T00820054  RH  082%=      5-min Rain = 0
KSP2 051624Z 35018KT 08/05 A3016 RMK A01 T00810054  RH  083%=      5-min Rain = 0
KSP2 051625Z 36020G25KT 08/05 A3016 RMK A01 T00810054  RH  083%=      5-min Rain = 0
KSP2 051626Z 36022KT 08/05 A3016 RMK A01 T00800054  RH  084%=      5-min Rain = 0
KSP2 051627Z 35019KT 08/06 A3017 RMK A01 T00790055  RH  084%=      5-min Rain = 0
KSP2 051628Z 36021KT 08/06 A3016 RMK A01 T00790056  RH  085%=      5-min Rain = 0
KSP2 051629Z 36019KT 08/06 A3016 RMK A01 T00790056  RH  085%=      5-min Rain = 0
KSP2 051630Z 36018KT 08/06 A3016 RMK A01 T00780057  RH  086%=      5-min Rain = 0
KSP2 051631Z 35019KT 08/06 A3016 RMK A01 T00780057  RH  086%=      5-min Rain = 0
KSP2 051632Z 35016KT 08/06 A3016 RMK A01 T00780057  RH  086%=      5-min Rain = 0
KSP2 051633Z 35014KT 08/06 A3016 RMK A01 T00780058  RH  087%=      5-min Rain = 0
KSP2 051634Z 35015G20KT 08/06 A3016 RMK A01 T00800059  RH  087%=      5-min Rain = 0
KSP2 051635Z 35017KT 08/06 A3016 RMK A01 T00810058  RH  086%=      5-min Rain = 0
KSP2 051636Z 35013KT 08/06 A3016 RMK A01 T00810057  RH  085%=      5-min Rain = 0
KSP2 051637Z 34015KT 08/06 A3016 RMK A01 T00820057  RH  084%=      5-min Rain = 0
KSP2 051638Z 35017KT 08/06 A3016 RMK A01 T00830057  RH  084%=      5-min Rain = 0
KSP2 051639Z 36018KT 08/06 A3016 RMK A01 T00840056  RH  083%=      5-min Rain = 0
KSP2 051640Z 35016KT 08/06 A3017 RMK A01 T00840056  RH  083%=      5-min Rain = 0
KSP2 051641Z 35016KT 08/06 A3017 RMK A01 T00840055  RH  082%=      5-min Rain = 0
KSP2 051642Z 34014G19KT 09/06 A3017 RMK A01 T00850056  RH  082%=      5-min Rain = 0
KSP2 051643Z 34014G20KT 09/06 A3017 RMK A01 T00850056  RH  082%=      5-min Rain = 0
KSP2 051644Z 35019KT 09/06 A3017 RMK A01 T00860056  RH  081%=      5-min Rain = 0
KSP2 051645Z 35018KT 09/06 A3017 RMK A01 T00860055  RH  081%=      5-min Rain = 0
KSP2 051646Z 35016KT 09/06 A3017 RMK A01 T00860056  RH  081%=      5-min Rain = 0
KSP2 051647Z 35018KT 09/06 A3017 RMK A01 T00870056  RH  081%=      5-min Rain = 0
KSP2 051648Z 34014KT 09/06 A3017 RMK A01 T00870056  RH  081%=      5-min Rain = 0
KSP2 051649Z 35015KT 09/06 A3017 RMK A01 T00880056  RH  080%=      5-min Rain = 0
KSP2 051650Z 35018KT 09/06 A3017 RMK A01 T00880055  RH  080%=      5-min Rain = 0
KSP2 051651Z 34015KT 09/06 A3017 RMK A01 T00880055  RH  080%=      5-min Rain = 0
KSP2 051652Z 35014KT 09/06 A3017 RMK A01 T00880056  RH  080%=      5-min Rain = 0
KSP2 051653Z 35015KT 09/06 A3018 RMK A01 T00890056  RH  080%=      5-min Rain = 0
KSP2 051654Z 35015KT 09/06 A3018 RMK A01 T00900056  RH  079%=      5-min Rain = 0
KSP2 051655Z 34015KT 09/06 A3018 RMK A01 T00900056  RH  079%=      5-min Rain = 0
KSP2 051656Z 34017KT 09/06 A3018 RMK A01 T00910056  RH  079%=      5-min Rain = 0
KSP2 051657Z 35015KT 09/06 A3018 RMK A01 T00910056  RH  078%=      5-min Rain = 0
KSP2 051658Z 35017KT 09/06 A3018 RMK A01 T00920056  RH  078%=      5-min Rain = 0
KSP2 051659Z 35018KT 09/06 A3018 RMK A01 T00920055  RH  078%=      5-min Rain = 0
KSP2 051700Z 35016G21KT 09/06 A3018 RMK A01 T00920055  RH  078%=      5-min Rain = 0
KSP2 051701Z 35016KT 09/06 A3018 RMK A01 T00920055  RH  078%=      5-min Rain = 0
KSP2 051702Z 34016KT 09/06 A3017 RMK A01 T00920055  RH  078%=      5-min Rain = 0
KSP2 051703Z 35017KT 09/06 A3017 RMK A01 T00920055  RH  078%=      5-min Rain = 0
KSP2 051704Z 34018KT 09/05 A3017 RMK A01 T00910054  RH  078%=      5-min Rain = 0
KSP2 051705Z 35015KT 09/05 A3017 RMK A01 T00910054  RH  078%=      5-min Rain = 0
KSP2 051706Z 34013G18KT 09/05 A3017 RMK A01 T00910054  RH  078%=      5-min Rain = 0
KSP2 051707Z 34016G21KT 09/05 A3017 RMK A01 T00910054  RH  078%=      5-min Rain = 0
KSP2 051708Z 34018G23KT 09/05 A3017 RMK A01 T00910054  RH  078%=      5-min Rain = 0
KSP2 051709Z 35018G24KT 09/05 A3017 RMK A01 T00910054  RH  078%=      5-min Rain = 0
KSP2 051710Z 35019KT 09/05 A3017 RMK A01 T00910054  RH  077%=      5-min Rain = 0
KSP2 051711Z 34020KT 09/05 A3017 RMK A01 T00910054  RH  077%=      5-min Rain = 0
KSP2 051712Z 35020KT 09/05 A3017 RMK A01 T00910054  RH  077%=      5-min Rain = 0
KSP2 051713Z 35023G29KT 09/05 A3017 RMK A01 T00910054  RH  077%=      5-min Rain = 0
KSP2 051714Z 35019KT 09/05 A3017 RMK A01 T00920054  RH  077%=      5-min Rain = 0
KSP2 051715Z 35022G29KT 09/05 A3018 RMK A01 T00920054  RH  077%=      5-min Rain = 0
KSP2 051716Z 35023G29KT 09/05 A3017 RMK A01 T00920053  RH  077%=      5-min Rain = 0
KSP2 051717Z 35017KT 09/05 A3017 RMK A01 T00920053  RH  077%=      5-min Rain = 0
KSP2 051718Z 35020KT 09/05 A3017 RMK A01 T00920053  RH  077%=      5-min Rain = 0
KSP2 051719Z 35021G27KT 09/05 A3018 RMK A01 T00920053  RH  076%=      5-min Rain = 0
KSP2 051720Z 35022KT 09/05 A3018 RMK A01 T00920052  RH  076%=      5-min Rain = 0
KSP2 051721Z 36022G28KT 09/05 A3018 RMK A01 T00910052  RH  077%=      5-min Rain = 0
KSP2 051722Z 36027KT 09/05 A3017 RMK A01 T00900052  RH  077%=      5-min Rain = 0
KSP2 051723Z 36025G32KT 09/05 A3018 RMK A01 T00890050  RH  077%=      5-min Rain = 0
KSP2 051724Z 36027G32KT 09/05 A3018 RMK A01 T00890050  RH  077%=      5-min Rain = 0
KSP2 051725Z 36028G35KT 09/05 A3018 RMK A01 T00890049  RH  076%=      5-min Rain = 0
KSP2 051726Z 36023KT 09/05 A3018 RMK A01 T00890049  RH  076%=      5-min Rain = 0
KSP2 051727Z 35025KT 09/05 A3018 RMK A01 T00890048  RH  075%=      5-min Rain = 0
KSP2 051728Z 00024KT 09/05 A3018 RMK A01 T00900047  RH  075%=      5-min Rain = 0
KSP2 051729Z 36019G26KT 09/05 A3018 RMK A01 T00910047  RH  074%=      5-min Rain = 0
KSP2 051730Z 00025KT 10/05 A3018 RMK A01 T00960051  RH  074%=      5-min Rain = 0
KSP2 051731Z 36024G29KT 10/05 A3018 RMK A01 T01030053  RH  071%=      5-min Rain = 0
KSP2 051732Z 36027KT 10/05 A3018 RMK A01 T01040045  RH  067%=      5-min Rain = 0
KSP2 051733Z 36025G30KT 10/04 A3018 RMK A01 T01000040  RH  066%=      5-min Rain = 0
KSP2 051734Z 36024KT 10/04 A3018 RMK A01 T00970040  RH  068%=      5-min Rain = 0
KSP2 051735Z 36021KT 10/04 A3018 RMK A01 T00970042  RH  069%=      5-min Rain = 0
KSP2 051736Z 35022G28KT 10/04 A3018 RMK A01 T00960041  RH  069%=      5-min Rain = 0
KSP2 051737Z 36027KT 10/04 A3018 RMK A01 T00960041  RH  069%=      5-min Rain = 0
KSP2 051738Z 36028KT 10/04 A3018 RMK A01 T00960042  RH  069%=      5-min Rain = 0
KSP2 051739Z 36023G30KT 10/04 A3018 RMK A01 T00960042  RH  069%=      5-min Rain = 0
KSP2 051740Z 36027G32KT 10/04 A3018 RMK A01 T00980041  RH  068%=      5-min Rain = 0
KSP2 051741Z 36023KT 10/04 A3018 RMK A01 T00970041  RH  068%=      5-min Rain = 0
KSP2 051742Z 00020KT 10/04 A3018 RMK A01 T00980041  RH  068%=      5-min Rain = 0
KSP2 051743Z 36020KT 10/04 A3018 RMK A01 T00990041  RH  067%=      5-min Rain = 0
KSP2 051744Z 00022G27KT 10/04 A3018 RMK A01 T00990041  RH  067%=      5-min Rain = 0
KSP2 051745Z 36025KT 10/04 A3018 RMK A01 T01000041  RH  067%=      5-min Rain = 0
KSP2 051746Z 00017KT 10/04 A3018 RMK A01 T01000041  RH  067%=      5-min Rain = 0
KSP2 051747Z 00024G30KT 10/04 A3018 RMK A01 T01010041  RH  066%=      5-min Rain = 0
KSP2 051748Z 01023G28KT 10/04 A3018 RMK A01 T01000039  RH  066%=      5-min Rain = 0
KSP2 051749Z 00026KT 10/04 A3018 RMK A01 T00980039  RH  067%=      5-min Rain = 0
KSP2 051750Z 01021G26KT 10/04 A3019 RMK A01 T00970038  RH  067%=      5-min Rain = 0
KSP2 051751Z 01020G25KT 10/04 A3019 RMK A01 T00970039  RH  067%=      5-min Rain = 0
KSP2 051752Z 00021G26KT 10/04 A3019 RMK A01 T00970040  RH  067%=      5-min Rain = 0
KSP2 051753Z 01026KT 10/04 A3019 RMK A01 T00970039  RH  067%=      5-min Rain = 0
KSP2 051754Z 00023KT 10/04 A3019 RMK A01 T00950038  RH  068%=      5-min Rain = 0
KSP2 051755Z 01020G26KT 10/04 A3019 RMK A01 T00950039  RH  068%=      5-min Rain = 0
KSP2 051756Z 01022G29KT 10/04 A3019 RMK A01 T00970040  RH  068%=      5-min Rain = 0
KSP2 051757Z 01025G30KT 10/04 A3019 RMK A01 T00980039  RH  067%=      5-min Rain = 0
KSP2 051758Z 01023KT 10/04 A3019 RMK A01 T00980038  RH  066%=      5-min Rain = 0
KSP2 051759Z 01024G31KT 10/04 A3019 RMK A01 T00970036  RH  066%=      5-min Rain = 0
KSP2 051800Z 01023G32KT 10/04 A3019 RMK A01 T00980035  RH  065%=      5-min Rain = 0
KSP2 051801Z 01027KT 10/04 A3019 RMK A01 T01010035  RH  064%=      5-min Rain = 0
KSP2 051802Z 02030KT 11/04 A3018 RMK A01 T01060035  RH  061%=      5-min Rain = 0
KSP2 051803Z 01028KT 11/03 A3019 RMK A01 T01070033  RH  060%=      5-min Rain = 0
KSP2 051804Z 01026G31KT 11/03 A3019 RMK A01 T01070032  RH  060%=      5-min Rain = 0
KSP2 051805Z 01026G32KT 11/03 A3019 RMK A01 T01060032  RH  060%=      5-min Rain = 0
KSP2 051806Z 01028G33KT 11/04 A3019 RMK A01 T01070035  RH  061%=      5-min Rain = 0
KSP2 051807Z 01025G30KT 11/03 A3019 RMK A01 T01070034  RH  061%=      5-min Rain = 0
KSP2 051808Z 01022G28KT 11/03 A3019 RMK A01 T01060033  RH  061%=      5-min Rain = 0
KSP2 051809Z 00024KT 11/03 A3019 RMK A01 T01060033  RH  061%=      5-min Rain = 0
KSP2 051810Z 02021KT 11/03 A3019 RMK A01 T01070033  RH  061%=      5-min Rain = 0
KSP2 051811Z 01024G30KT 11/04 A3019 RMK A01 T01100035  RH  060%=      5-min Rain = 0
KSP2 051812Z 02020G25KT 11/03 A3019 RMK A01 T01120034  RH  058%=      5-min Rain = 0
KSP2 051813Z 01018G26KT 11/03 A3019 RMK A01 T01130034  RH  058%=      5-min Rain = 0
KSP2 051814Z 02023KT 12/03 A3019 RMK A01 T01150033  RH  057%=      5-min Rain = 0
KSP2 051815Z 02027G33KT 11/03 A3019 RMK A01 T01130031  RH  057%=      5-min Rain = 0
KSP2 051816Z 02021G29KT 11/03 A3019 RMK A01 T01100030  RH  058%=      5-min Rain = 0
KSP2 051817Z 02019G25KT 11/03 A3019 RMK A01 T01100031  RH  058%=      5-min Rain = 0
KSP2 051818Z 02026G31KT 11/04 A3019 RMK A01 T01140035  RH  058%=      5-min Rain = 0
KSP2 051819Z 01027G32KT 12/03 A3019 RMK A01 T01150032  RH  056%=      5-min Rain = 0
KSP2 051820Z 02025G30KT 11/03 A3019 RMK A01 T01110030  RH  057%=      5-min Rain = 0
KSP2 051821Z 02024KT 11/03 A3019 RMK A01 T01100033  RH  059%=      5-min Rain = 0
KSP2 051822Z 02023G28KT 11/03 A3019 RMK A01 T01110034  RH  059%=      5-min Rain = 0
KSP2 051823Z 02021G29KT 11/03 A3019 RMK A01 T01110033  RH  059%=      5-min Rain = 0
KSP2 051824Z 01027G33KT 11/03 A3019 RMK A01 T01110033  RH  058%=      5-min Rain = 0
KSP2 051825Z 01026G31KT 11/03 A3019 RMK A01 T01090031  RH  058%=      5-min Rain = 0
KSP2 051826Z 01025KT 11/03 A3019 RMK A01 T01080031  RH  059%=      5-min Rain = 0
KSP2 051827Z 01024G29KT 11/03 A3019 RMK A01 T01070031  RH  059%=      5-min Rain = 0
KSP2 051828Z 01021G27KT 11/03 A3019 RMK A01 T01060031  RH  060%=      5-min Rain = 0
KSP2 051829Z 01024KT 11/03 A3019 RMK A01 T01060031  RH  060%=      5-min Rain = 0
KSP2 051830Z 02018KT 11/03 A3019 RMK A01 T01070032  RH  060%=      5-min Rain = 0
KSP2 051831Z 01023G28KT 11/03 A3019 RMK A01 T01090032  RH  059%=      5-min Rain = 0
KSP2 051832Z 02023G31KT 11/03 A3019 RMK A01 T01090031  RH  058%=      5-min Rain = 0
KSP2 051833Z 01023KT 11/03 A3019 RMK A01 T01080031  RH  059%=      5-min Rain = 0
KSP2 051834Z 01023G30KT 11/03 A3019 RMK A01 T01090032  RH  059%=      5-min Rain = 0
KSP2 051835Z 02019G25KT 11/03 A3019 RMK A01 T01110033  RH  058%=      5-min Rain = 0
KSP2 051836Z 02020G27KT 11/03 A3019 RMK A01 T01120032  RH  058%=      5-min Rain = 0
KSP2 051837Z 02019KT 11/03 A3019 RMK A01 T01120032  RH  058%=      5-min Rain = 0
KSP2 051838Z 02023G33KT 11/03 A3019 RMK A01 T01110031  RH  058%=      5-min Rain = 0
KSP2 051839Z 02024G29KT 11/03 A3019 RMK A01 T01100030  RH  058%=      5-min Rain = 0
KSP2 051840Z 02025KT 11/03 A3019 RMK A01 T01090030  RH  058%=      5-min Rain = 0
KSP2 051841Z 02025G34KT 11/03 A3019 RMK A01 T01080030  RH  059%=      5-min Rain = 0
KSP2 051842Z 01019G29KT 11/03 A3019 RMK A01 T01080031  RH  059%=      5-min Rain = 0
KSP2 051843Z 02022G27KT 11/03 A3019 RMK A01 T01100032  RH  058%=      5-min Rain = 0
KSP2 051844Z 02016G22KT 11/03 A3019 RMK A01 T01110032  RH  058%=      5-min Rain = 0
KSP2 051845Z 03020G25KT 11/03 A3019 RMK A01 T01120032  RH  058%=      5-min Rain = 0
KSP2 051846Z 02024G29KT 11/03 A3019 RMK A01 T01110031  RH  058%=      5-min Rain = 0
KSP2 051847Z 01021G26KT 11/03 A3019 RMK A01 T01090031  RH  059%=      5-min Rain = 0
KSP2 051848Z 02022G27KT 11/03 A3019 RMK A01 T01090032  RH  059%=      5-min Rain = 0
KSP2 051849Z 02020G25KT 11/03 A3019 RMK A01 T01080032  RH  059%=      5-min Rain = 0
KSP2 051850Z 02021KT 11/03 A3019 RMK A01 T01080032  RH  059%=      5-min Rain = 0
KSP2 051851Z 01021G28KT 11/03 A3019 RMK A01 T01100032  RH  059%=      5-min Rain = 0
KSP2 051852Z 01021G28KT 11/03 A3019 RMK A01 T01110031  RH  058%=      5-min Rain = 0
KSP2 051853Z 01023G28KT 11/03 A3019 RMK A01 T01100031  RH  058%=      5-min Rain = 0
KSP2 051854Z 01024KT 11/03 A3019 RMK A01 T01090030  RH  058%=      5-min Rain = 0
KSP2 051855Z 00022KT 11/03 A302 RMK A01 T01080031  RH  059%=      5-min Rain = 0
KSP2 051856Z 01021KT 11/03 A302 RMK A01 T01070031  RH  059%=      5-min Rain = 0
KSP2 051857Z 36023KT 11/03 A3019 RMK A01 T01070030  RH  059%=      5-min Rain = 0
KSP2 051858Z 01020G25KT 11/03 A302 RMK A01 T01080031  RH  059%=      5-min Rain = 0
KSP2 051859Z 01020KT 11/03 A3019 RMK A01 T01080031  RH  059%=      5-min Rain = 0
KSP2 051900Z 02017G22KT 11/03 A302 RMK A01 T01090031  RH  059%=      5-min Rain = 0
KSP2 051901Z 02023G28KT 11/03 A3019 RMK A01 T01100032  RH  059%=      5-min Rain = 0
KSP2 051902Z 02023G29KT 11/03 A3019 RMK A01 T01100032  RH  059%=      5-min Rain = 0
KSP2 051903Z 02023KT 11/03 A302 RMK A01 T01090031  RH  059%=      5-min Rain = 0
KSP2 051904Z 01025KT 11/03 A302 RMK A01 T01090031  RH  058%=      5-min Rain = 0
KSP2 051905Z 00025KT 11/03 A302 RMK A01 T01090031  RH  058%=      5-min Rain = 0
KSP2 051906Z 01023KT 11/03 A302 RMK A01 T01090031  RH  058%=      5-min Rain = 0
KSP2 051907Z 01023G28KT 11/03 A302 RMK A01 T01090030  RH  058%=      5-min Rain = 0
KSP2 051908Z 01023KT 11/03 A302 RMK A01 T01090031  RH  059%=      5-min Rain = 0
KSP2 051909Z 01018G23KT 11/03 A302 RMK A01 T01090031  RH  059%=      5-min Rain = 0
KSP2 051910Z 36018G23KT 11/03 A302 RMK A01 T01110033  RH  058%=      5-min Rain = 0
KSP2 051911Z 00023KT 11/03 A302 RMK A01 T01120033  RH  058%=      5-min Rain = 0
KSP2 051912Z 02019G26KT 11/03 A302 RMK A01 T01120033  RH  058%=      5-min Rain = 0
KSP2 051913Z 01021G27KT 11/03 A302 RMK A01 T01110031  RH  058%=      5-min Rain = 0
KSP2 051914Z 01022KT 11/03 A302 RMK A01 T01090030  RH  058%=      5-min Rain = 0
KSP2 051915Z 02020G26KT 11/03 A302 RMK A01 T01080030  RH  058%=      5-min Rain = 0
KSP2 051916Z 02021KT 11/03 A302 RMK A01 T01080030  RH  059%=      5-min Rain = 0
KSP2 051917Z 02021G27KT 11/03 A302 RMK A01 T01080031  RH  059%=      5-min Rain = 0
KSP2 051918Z 01020G26KT 11/03 A302 RMK A01 T01070031  RH  059%=      5-min Rain = 0
KSP2 051919Z 02019KT 11/03 A302 RMK A01 T01060031  RH  060%=      5-min Rain = 0
KSP2 051920Z 01022KT 11/03 A302 RMK A01 T01070032  RH  060%=      5-min Rain = 0
KSP2 051921Z 02021KT 11/03 A302 RMK A01 T01060032  RH  060%=      5-min Rain = 0
KSP2 051922Z 01020KT 11/03 A302 RMK A01 T01060031  RH  060%=      5-min Rain = 0
KSP2 051923Z 00020KT 11/03 A302 RMK A01 T01060032  RH  060%=      5-min Rain = 0
KSP2 051924Z 01019G25KT 11/03 A302 RMK A01 T01060032  RH  060%=      5-min Rain = 0
KSP2 051925Z 01020KT 11/03 A302 RMK A01 T01070032  RH  060%=      5-min Rain = 0
KSP2 051926Z 01022G27KT 11/03 A302 RMK A01 T01060032  RH  060%=      5-min Rain = 0
KSP2 051927Z 01023KT 11/03 A302 RMK A01 T01070032  RH  060%=      5-min Rain = 0
KSP2 051928Z 01021KT 11/03 A302 RMK A01 T01060031  RH  060%=      5-min Rain = 0
KSP2 051929Z 01022KT 11/03 A302 RMK A01 T01050032  RH  060%=      5-min Rain = 0
KSP2 051930Z 01021KT 11/03 A302 RMK A01 T01050032  RH  061%=      5-min Rain = 0
KSP2 051931Z 01023KT 11/03 A302 RMK A01 T01050031  RH  060%=      5-min Rain = 0
KSP2 051932Z 01022G28KT 10/03 A302 RMK A01 T01040031  RH  061%=      5-min Rain = 0
KSP2 051933Z 01023KT 10/03 A302 RMK A01 T01030031  RH  061%=      5-min Rain = 0
KSP2 051934Z 00022KT 10/03 A302 RMK A01 T01030031  RH  061%=      5-min Rain = 0
KSP2 051935Z 00024KT 10/03 A302 RMK A01 T01030032  RH  061%=      5-min Rain = 0
KSP2 051936Z 01023KT 10/03 A302 RMK A01 T01020032  RH  062%=      5-min Rain = 0
KSP2 051937Z 01022KT 10/03 A302 RMK A01 T01020032  RH  062%=      5-min Rain = 0
KSP2 051938Z 01019KT 10/03 A302 RMK A01 T01020032  RH  062%=      5-min Rain = 0
KSP2 051939Z 36021G26KT 10/03 A3021 RMK A01 T01020032  RH  062%=      5-min Rain = 0
KSP2 051940Z 00021KT 10/03 A302 RMK A01 T01020033  RH  062%=      5-min Rain = 0
KSP2 051941Z 01020KT 10/03 A302 RMK A01 T01010033  RH  063%=      5-min Rain = 0
KSP2 051942Z 01021KT 10/03 A302 RMK A01 T01010033  RH  063%=      5-min Rain = 0
KSP2 051943Z 00022G27KT 10/03 A302 RMK A01 T01010033  RH  063%=      5-min Rain = 0
KSP2 051944Z 36021G28KT 10/03 A3021 RMK A01 T01000034  RH  063%=      5-min Rain = 0
KSP2 051945Z 36020KT 10/03 A302 RMK A01 T01000034  RH  063%=      5-min Rain = 0
KSP2 051946Z 00018KT 10/03 A3021 RMK A01 T01000034  RH  063%=      5-min Rain = 0
KSP2 051947Z 00019KT 10/03 A302 RMK A01 T01000034  RH  063%=      5-min Rain = 0
KSP2 051948Z 01020G27KT 10/03 A302 RMK A01 T01000034  RH  064%=      5-min Rain = 0
KSP2 051949Z 01022KT 10/03 A302 RMK A01 T01000034  RH  064%=      5-min Rain = 0
KSP2 051950Z 00024KT 10/04 A302 RMK A01 T01000035  RH  064%=      5-min Rain = 0
KSP2 051951Z 36021KT 10/04 A302 RMK A01 T01000035  RH  064%=      5-min Rain = 0
KSP2 051952Z 00021G26KT 10/04 A302 RMK A01 T01000035  RH  064%=      5-min Rain = 0
KSP2 051953Z 00023KT 10/04 A302 RMK A01 T01010036  RH  064%=      5-min Rain = 0
KSP2 051954Z 00023KT 10/04 A302 RMK A01 T01010035  RH  064%=      5-min Rain = 0
KSP2 051955Z 36024KT 10/04 A302 RMK A01 T01010035  RH  064%=      5-min Rain = 0
KSP2 051956Z 00023KT 10/04 A302 RMK A01 T01010035  RH  063%=      5-min Rain = 0
KSP2 051957Z 01024KT 10/03 A302 RMK A01 T01010034  RH  063%=      5-min Rain = 0
KSP2 051958Z 01021G28KT 10/04 A302 RMK A01 T01010035  RH  063%=      5-min Rain = 0
KSP2 051959Z 01020KT 10/04 A302 RMK A01 T01010035  RH  063%=      5-min Rain = 0
KSP2 052000Z 01020KT 10/04 A302 RMK A01 T01010035  RH  063%=      5-min Rain = 0
KSP2 052001Z 01018G23KT 10/04 A302 RMK A01 T01020035  RH  063%=      5-min Rain = 0
KSP2 052002Z 01021G26KT 10/04 A302 RMK A01 T01020036  RH  063%=      5-min Rain = 0
KSP2 052003Z 01021KT 10/04 A302 RMK A01 T01020035  RH  063%=      5-min Rain = 0
KSP2 052004Z 01020KT 10/04 A302 RMK A01 T01010035  RH  064%=      5-min Rain = 0
KSP2 052005Z 01021KT 10/04 A302 RMK A01 T01010036  RH  064%=      5-min Rain = 0
KSP2 052006Z 01022G27KT 10/04 A302 RMK A01 T01000035  RH  064%=      5-min Rain = 0
KSP2 052007Z 01022KT 10/04 A302 RMK A01 T01000035  RH  064%=      5-min Rain = 0
KSP2 052008Z 01018KT 10/04 A3021 RMK A01 T00990035  RH  064%=      5-min Rain = 0
KSP2 052009Z 00020KT 10/04 A302 RMK A01 T01000036  RH  064%=      5-min Rain = 0
KSP2 052010Z 01019KT 10/04 A302 RMK A01 T01010036  RH  064%=      5-min Rain = 0
KSP2 052011Z 00017KT 10/04 A302 RMK A01 T01030037  RH  064%=      5-min Rain = 0
KSP2 052012Z 01019G24KT 10/04 A302 RMK A01 T01040037  RH  063%=      5-min Rain = 0
KSP2 052013Z 00018KT 11/04 A302 RMK A01 T01050037  RH  063%=      5-min Rain = 0
KSP2 052014Z 01016KT 11/04 A302 RMK A01 T01050037  RH  063%=      5-min Rain = 0
KSP2 052015Z 01020KT 11/04 A302 RMK A01 T01060036  RH  062%=      5-min Rain = 0
KSP2 052016Z 00018KT 11/04 A302 RMK A01 T01060036  RH  062%=      5-min Rain = 0
KSP2 052017Z 01017KT 11/04 A302 RMK A01 T01070037  RH  062%=      5-min Rain = 0
KSP2 052018Z 01023G29KT 11/04 A302 RMK A01 T01080036  RH  061%=      5-min Rain = 0
KSP2 052019Z 01025KT 11/03 A302 RMK A01 T01070034  RH  061%=      5-min Rain = 0
KSP2 052020Z 00023KT 11/03 A302 RMK A01 T01050034  RH  061%=      5-min Rain = 0
KSP2 052021Z 00020KT 11/04 A302 RMK A01 T01050035  RH  062%=      5-min Rain = 0
KSP2 052022Z 01024KT 11/04 A302 RMK A01 T01050036  RH  062%=      5-min Rain = 0
KSP2 052023Z 01024G30KT 11/04 A302 RMK A01 T01050035  RH  062%=      5-min Rain = 0
KSP2 052024Z 01025KT 11/04 A302 RMK A01 T01050036  RH  062%=      5-min Rain = 0
KSP2 052025Z 01022KT 11/04 A302 RMK A01 T01050036  RH  062%=      5-min Rain = 0
KSP2 052026Z 01018KT 11/04 A302 RMK A01 T01060037  RH  062%=      5-min Rain = 0
KSP2 052027Z 00022KT 11/04 A302 RMK A01 T01090038  RH  061%=      5-min Rain = 0
KSP2 052028Z 00022KT 11/04 A302 RMK A01 T01090036  RH  061%=      5-min Rain = 0
KSP2 052029Z 01020KT 11/04 A302 RMK A01 T01090037  RH  061%=      5-min Rain = 0
KSP2 052030Z 01021G27KT 11/04 A302 RMK A01 T01090036  RH  061%=      5-min Rain = 0
KSP2 052031Z 01022KT 11/04 A302 RMK A01 T01080035  RH  061%=      5-min Rain = 0
KSP2 052032Z 00020G28KT 11/04 A302 RMK A01 T01070036  RH  062%=      5-min Rain = 0
KSP2 052033Z 01020KT 11/04 A302 RMK A01 T01070036  RH  061%=      5-min Rain = 0
KSP2 052034Z 02020KT 11/04 A302 RMK A01 T01080036  RH  061%=      5-min Rain = 0
KSP2 052035Z 02020G26KT 11/04 A302 RMK A01 T01090036  RH  061%=      5-min Rain = 0
KSP2 052036Z 01019KT 11/04 A302 RMK A01 T01080036  RH  061%=      5-min Rain = 0
KSP2 052037Z 01019KT 11/04 A302 RMK A01 T01090037  RH  061%=      5-min Rain = 0
KSP2 052038Z 01023KT 11/04 A302 RMK A01 T01100036  RH  060%=      5-min Rain = 0
KSP2 052039Z 02020G25KT 11/04 A302 RMK A01 T01090036  RH  061%=      5-min Rain = 0
KSP2 052040Z 02018G23KT 11/04 A302 RMK A01 T01080037  RH  061%=      5-min Rain = 0
KSP2 052041Z 01018KT 11/04 A302 RMK A01 T01080037  RH  062%=      5-min Rain = 0
KSP2 052042Z 01022KT 11/04 A302 RMK A01 T01090038  RH  062%=      5-min Rain = 0
KSP2 052043Z 02022G27KT 11/04 A302 RMK A01 T01100038  RH  061%=      5-min Rain = 0
KSP2 052044Z 02021G27KT 11/04 A302 RMK A01 T01090038  RH  061%=      5-min Rain = 0
KSP2 052045Z 02022KT 11/04 A302 RMK A01 T01100039  RH  062%=      5-min Rain = 0
KSP2 052046Z 01021KT 11/04 A302 RMK A01 T01110039  RH  061%=      5-min Rain = 0
KSP2 052047Z 01023KT 11/04 A302 RMK A01 T01120039  RH  061%=      5-min Rain = 0
KSP2 052048Z 01018KT 11/04 A302 RMK A01 T01110038  RH  061%=      5-min Rain = 0
KSP2 052049Z 01017KT 11/04 A302 RMK A01 T01110039  RH  061%=      5-min Rain = 0
KSP2 052050Z 00021KT 11/04 A302 RMK A01 T01140041  RH  061%=      5-min Rain = 0
KSP2 052051Z 01022KT 11/04 A302 RMK A01 T01140039  RH  060%=      5-min Rain = 0
KSP2 052052Z 01022KT 11/04 A302 RMK A01 T01130039  RH  060%=      5-min Rain = 0
KSP2 052053Z 01022KT 11/04 A302 RMK A01 T01120038  RH  060%=      5-min Rain = 0
KSP2 052054Z 01020KT 11/04 A302 RMK A01 T01110038  RH  061%=      5-min Rain = 0
KSP2 052055Z 01021KT 11/04 A3021 RMK A01 T01100038  RH  061%=      5-min Rain = 0
KSP2 052056Z 00020KT 11/04 A3021 RMK A01 T01090038  RH  061%=      5-min Rain = 0
KSP2 052057Z 00017KT 11/04 A3021 RMK A01 T01090038  RH  061%=      5-min Rain = 0
KSP2 052058Z 02019G24KT 11/04 A3021 RMK A01 T01100039  RH  062%=      5-min Rain = 0
KSP2 052059Z 00018KT 11/04 A3021 RMK A01 T01120038  RH  061%=      5-min Rain = 0
KSP2 052100Z 01024KT 11/04 A3021 RMK A01 T01120036  RH  060%=      5-min Rain = 0
KSP2 052101Z 00024KT 11/04 A3021 RMK A01 T01100036  RH  060%=      5-min Rain = 0
KSP2 052102Z 01021KT 11/04 A3021 RMK A01 T01080036  RH  061%=      5-min Rain = 0
KSP2 052103Z 01021KT 11/04 A3021 RMK A01 T01090036  RH  061%=      5-min Rain = 0
KSP2 052104Z 01020KT 11/04 A3021 RMK A01 T01090036  RH  061%=      5-min Rain = 0
KSP2 052105Z 01018KT 11/04 A3021 RMK A01 T01090036  RH  060%=      5-min Rain = 0
KSP2 052106Z 00017KT 11/04 A3021 RMK A01 T01090037  RH  061%=      5-min Rain = 0
KSP2 052107Z 01019KT 11/04 A3021 RMK A01 T01100037  RH  061%=      5-min Rain = 0
KSP2 052108Z 01018KT 11/04 A3021 RMK A01 T01100038  RH  061%=      5-min Rain = 0
KSP2 052109Z 00024G30KT 11/04 A3021 RMK A01 T01110038  RH  061%=      5-min Rain = 0
KSP2 052110Z 00023KT 11/04 A3021 RMK A01 T01110037  RH  060%=      5-min Rain = 0
KSP2 052111Z 00022G28KT 11/04 A3021 RMK A01 T01100038  RH  061%=      5-min Rain = 0
KSP2 052112Z 01026G31KT 11/04 A3021 RMK A01 T01100037  RH  061%=      5-min Rain = 0
KSP2 052113Z 01024G31KT 11/04 A3021 RMK A01 T01090037  RH  061%=      5-min Rain = 0
KSP2 052114Z 01016KT 11/04 A3021 RMK A01 T01110040  RH  062%=      5-min Rain = 0
KSP2 052115Z 01023G28KT 12/04 A3021 RMK A01 T01150041  RH  060%=      5-min Rain = 0
KSP2 052116Z 01023G28KT 11/04 A3021 RMK A01 T01140038  RH  059%=      5-min Rain = 0
KSP2 052117Z 01021G27KT 11/04 A3021 RMK A01 T01130039  RH  061%=      5-min Rain = 0
KSP2 052118Z 01021G26KT 12/04 A3021 RMK A01 T01170042  RH  060%=      5-min Rain = 0
KSP2 052119Z 00025KT 12/04 A3021 RMK A01 T01190041  RH  059%=      5-min Rain = 0
KSP2 052120Z 01024G29KT 12/04 A3021 RMK A01 T01200040  RH  058%=      5-min Rain = 0
KSP2 052121Z 00025KT 12/04 A3021 RMK A01 T01190039  RH  058%=      5-min Rain = 0
KSP2 052122Z 01024KT 12/04 A3021 RMK A01 T01170039  RH  059%=      5-min Rain = 0
KSP2 052123Z 01023KT 12/04 A3021 RMK A01 T01170040  RH  059%=      5-min Rain = 0
KSP2 052124Z 01024G29KT 12/04 A3021 RMK A01 T01170039  RH  059%=      5-min Rain = 0
KSP2 052125Z 01023KT 12/04 A3021 RMK A01 T01150037  RH  059%=      5-min Rain = 0
KSP2 052126Z 01022KT 11/04 A3021 RMK A01 T01130038  RH  060%=      5-min Rain = 0
KSP2 052127Z 01022KT 11/04 A3021 RMK A01 T01120039  RH  061%=      5-min Rain = 0
KSP2 052128Z 01022G27KT 11/04 A3021 RMK A01 T01120038  RH  061%=      5-min Rain = 0
KSP2 052129Z 01022KT 11/04 A3021 RMK A01 T01110039  RH  061%=      5-min Rain = 0
KSP2 052130Z 02019G24KT 11/04 A3021 RMK A01 T01100039  RH  062%=      5-min Rain = 0
KSP2 052131Z 01019KT 11/04 A3021 RMK A01 T01100039  RH  062%=      5-min Rain = 0
KSP2 052132Z 01018G23KT 11/04 A3021 RMK A01 T01110039  RH  061%=      5-min Rain = 0
KSP2 052133Z 00019KT 11/04 A3021 RMK A01 T01120039  RH  061%=      5-min Rain = 0
KSP2 052134Z 35019G25KT 11/04 A3021 RMK A01 T01110038  RH  061%=      5-min Rain = 0
KSP2 052135Z 00022G28KT 11/04 A3021 RMK A01 T01110038  RH  061%=      5-min Rain = 0
KSP2 052136Z 00022G27KT 11/04 A3021 RMK A01 T01090037  RH  061%=      5-min Rain = 0
KSP2 052137Z 00019KT 11/04 A3021 RMK A01 T01080038  RH  062%=      5-min Rain = 0
KSP2 052138Z 00019G24KT 11/04 A3022 RMK A01 T01080038  RH  062%=      5-min Rain = 0
KSP2 052139Z 00023KT 11/04 A3021 RMK A01 T01080038  RH  062%=      5-min Rain = 0
KSP2 052140Z 00019KT 11/04 A3022 RMK A01 T01080038  RH  062%=      5-min Rain = 0
KSP2 052141Z 36018KT 11/04 A3022 RMK A01 T01080038  RH  062%=      5-min Rain = 0
KSP2 052142Z 36018KT 11/04 A3022 RMK A01 T01080038  RH  062%=      5-min Rain = 0
KSP2 052143Z 00020KT 11/04 A3022 RMK A01 T01080038  RH  062%=      5-min Rain = 0
KSP2 052144Z 01022KT 11/04 A3022 RMK A01 T01080038  RH  062%=      5-min Rain = 0
KSP2 052145Z 00019G25KT 11/04 A3022 RMK A01 T01080038  RH  062%=      5-min Rain = 0
KSP2 052146Z 01018KT 11/04 A3022 RMK A01 T01110041  RH  062%=      5-min Rain = 0
KSP2 052147Z 00022KT 12/04 A3022 RMK A01 T01150041  RH  060%=      5-min Rain = 0
KSP2 052148Z 00024KT 12/04 A3022 RMK A01 T01160040  RH  060%=      5-min Rain = 0
KSP2 052149Z 02019G26KT 12/04 A3022 RMK A01 T01160041  RH  060%=      5-min Rain = 0
KSP2 052150Z 01023KT 12/04 A3022 RMK A01 T01170040  RH  059%=      5-min Rain = 0
KSP2 052151Z 01019KT 12/04 A3022 RMK A01 T01160039  RH  059%=      5-min Rain = 0
KSP2 052152Z 01019KT 11/04 A3022 RMK A01 T01140039  RH  060%=      5-min Rain = 0
KSP2 052153Z 01017G22KT 12/04 A3022 RMK A01 T01160042  RH  060%=      5-min Rain = 0
KSP2 052154Z 01019KT 12/04 A3022 RMK A01 T01180041  RH  059%=      5-min Rain = 0
KSP2 052155Z 35019KT 12/04 A3022 RMK A01 T01180040  RH  059%=      5-min Rain = 0
KSP2 052156Z 36019KT 12/04 A3022 RMK A01 T01180038  RH  058%=      5-min Rain = 0
KSP2 052157Z 00021KT 12/04 A3022 RMK A01 T01150038  RH  059%=      5-min Rain = 0
KSP2 052158Z 36019KT 11/04 A3022 RMK A01 T01140038  RH  060%=      5-min Rain = 0
KSP2 052159Z 01020KT 11/04 A3022 RMK A01 T01130037  RH  059%=      5-min Rain = 0
KSP2 052200Z 01020KT 11/04 A3022 RMK A01 T01130037  RH  059%=      5-min Rain = 0
KSP2 052201Z 01018KT 11/04 A3022 RMK A01 T01130037  RH  059%=      5-min Rain = 0
KSP2 052202Z 01022KT 11/04 A3022 RMK A01 T01140036  RH  059%=      5-min Rain = 0
KSP2 052203Z 01022G27KT 11/04 A3022 RMK A01 T01140035  RH  058%=      5-min Rain = 0
KSP2 052204Z 01020G25KT 11/03 A3022 RMK A01 T01140034  RH  058%=      5-min Rain = 0
KSP2 052205Z 01018KT 11/03 A3022 RMK A01 T01140033  RH  058%=      5-min Rain = 0
KSP2 052206Z 01021KT 11/03 A3022 RMK A01 T01140033  RH  058%=      5-min Rain = 0
KSP2 052207Z 01020KT 11/03 A3022 RMK A01 T01140034  RH  058%=      5-min Rain = 0
KSP2 052208Z 00022KT 11/03 A3022 RMK A01 T01130034  RH  058%=      5-min Rain = 0
KSP2 052209Z 01022KT 11/03 A3022 RMK A01 T01130034  RH  058%=      5-min Rain = 0
KSP2 052210Z 01018KT 11/04 A3022 RMK A01 T01120035  RH  059%=      5-min Rain = 0
KSP2 052211Z 01016G21KT 11/04 A3022 RMK A01 T01120035  RH  059%=      5-min Rain = 0
KSP2 052212Z 01017G22KT 11/04 A3022 RMK A01 T01130036  RH  059%=      5-min Rain = 0
KSP2 052213Z 02018KT 11/04 A3022 RMK A01 T01130037  RH  059%=      5-min Rain = 0
KSP2 052214Z 01016G21KT 11/04 A3022 RMK A01 T01130037  RH  059%=      5-min Rain = 0
KSP2 052215Z 01021KT 11/04 A3022 RMK A01 T01140038  RH  059%=      5-min Rain = 0
KSP2 052216Z 02018KT 11/04 A3022 RMK A01 T01140038  RH  060%=      5-min Rain = 0
KSP2 052217Z 02020KT 11/04 A3022 RMK A01 T01130038  RH  060%=      5-min Rain = 0
KSP2 052218Z 01020KT 11/04 A3022 RMK A01 T01130037  RH  060%=      5-min Rain = 0
KSP2 052219Z 01016G21KT 11/04 A3022 RMK A01 T01130038  RH  060%=      5-min Rain = 0
KSP2 052220Z 02020G25KT 11/04 A3022 RMK A01 T01120038  RH  060%=      5-min Rain = 0
KSP2 052221Z 02019KT 11/04 A3022 RMK A01 T01110038  RH  060%=      5-min Rain = 0
KSP2 052222Z 02016KT 11/04 A3022 RMK A01 T01110038  RH  061%=      5-min Rain = 0
KSP2 052223Z 02016KT 11/04 A3022 RMK A01 T01120038  RH  060%=      5-min Rain = 0
KSP2 052224Z 01019KT 12/04 A3022 RMK A01 T01160041  RH  060%=      5-min Rain = 0
KSP2 052225Z 02017G22KT 12/04 A3022 RMK A01 T01190039  RH  058%=      5-min Rain = 0
KSP2 052226Z 02013G19KT 12/04 A3023 RMK A01 T01200040  RH  058%=      5-min Rain = 0
KSP2 052227Z 01019KT 12/04 A3022 RMK A01 T01220040  RH  057%=      5-min Rain = 0
KSP2 052228Z 01019KT 12/04 A3022 RMK A01 T01240039  RH  056%=      5-min Rain = 0
KSP2 052229Z 02019KT 12/04 A3022 RMK A01 T01230039  RH  056%=      5-min Rain = 0
KSP2 052230Z 01016KT 12/04 A3023 RMK A01 T01220039  RH  057%=      5-min Rain = 0
KSP2 052231Z 36017KT 12/04 A3023 RMK A01 T01220038  RH  057%=      5-min Rain = 0
KSP2 052232Z 01017KT 12/04 A3023 RMK A01 T01220037  RH  056%=      5-min Rain = 0
KSP2 052233Z 02016KT 12/04 A3023 RMK A01 T01230036  RH  055%=      5-min Rain = 0
KSP2 052234Z 02016KT 12/04 A3023 RMK A01 T01230036  RH  055%=      5-min Rain = 0
KSP2 052235Z 02013KT 12/04 A3023 RMK A01 T01240037  RH  056%=      5-min Rain = 0
KSP2 052236Z 02015G21KT 13/04 A3023 RMK A01 T01260037  RH  055%=      5-min Rain = 0
KSP2 052237Z 03020G25KT 13/03 A3022 RMK A01 T01250034  RH  054%=      5-min Rain = 0
KSP2 052238Z 02015G20KT 12/03 A3023 RMK A01 T01210029  RH  053%=      5-min Rain = 0
KSP2 052239Z 03017KT 12/03 A3023 RMK A01 T01200030  RH  054%=      5-min Rain = 0
KSP2 052240Z 03014KT 12/03 A3022 RMK A01 T01200032  RH  055%=      5-min Rain = 0
KSP2 052241Z 02016G22KT 12/03 A3023 RMK A01 T01200033  RH  055%=      5-min Rain = 0
KSP2 052242Z 03016G21KT 12/03 A3023 RMK A01 T01210032  RH  055%=      5-min Rain = 0
KSP2 052243Z 02016KT 12/03 A3023 RMK A01 T01210032  RH  055%=      5-min Rain = 0
KSP2 052244Z 02016KT 12/03 A3023 RMK A01 T01210033  RH  055%=      5-min Rain = 0
KSP2 052245Z 03012KT 12/03 A3022 RMK A01 T01210033  RH  055%=      5-min Rain = 0
KSP2 052246Z 03011KT 12/03 A3023 RMK A01 T01220034  RH  055%=      5-min Rain = 0
KSP2 052247Z 03016KT 12/03 A3022 RMK A01 T01220034  RH  055%=      5-min Rain = 0
KSP2 052248Z 03016KT 12/03 A3023 RMK A01 T01220033  RH  055%=      5-min Rain = 0
KSP2 052249Z 02016KT 12/03 A3023 RMK A01 T01200032  RH  055%=      5-min Rain = 0
KSP2 052250Z 02013KT 12/03 A3023 RMK A01 T01200030  RH  054%=      5-min Rain = 0
KSP2 052251Z 03013KT 12/03 A3023 RMK A01 T01190030  RH  054%=      5-min Rain = 0
KSP2 052252Z 03013G18KT 12/03 A3023 RMK A01 T01190031  RH  055%=      5-min Rain = 0
KSP2 052253Z 03017G22KT 12/03 A3023 RMK A01 T01190030  RH  055%=      5-min Rain = 0
KSP2 052254Z 03016KT 12/03 A3022 RMK A01 T01170029  RH  055%=      5-min Rain = 0
KSP2 052255Z 02014G20KT 12/03 A3023 RMK A01 T01160030  RH  055%=      5-min Rain = 0
KSP2 052256Z 02015KT 12/03 A3023 RMK A01 T01160030  RH  055%=      5-min Rain = 0
KSP2 052257Z 03012KT 12/03 A3023 RMK A01 T01170030  RH  055%=      5-min Rain = 0
KSP2 052258Z 03013KT 12/03 A3023 RMK A01 T01190031  RH  055%=      5-min Rain = 0
KSP2 052259Z 02016G23KT 12/03 A3023 RMK A01 T01210031  RH  054%=      5-min Rain = 0
KSP2 052300Z 03016KT 12/03 A3022 RMK A01 T01230031  RH  053%=      5-min Rain = 0
KSP2 052301Z 02018KT 12/03 A3022 RMK A01 T01240030  RH  053%=      5-min Rain = 0
KSP2 052302Z 02018KT 12/03 A3022 RMK A01 T01240029  RH  052%=      5-min Rain = 0
KSP2 052303Z 02015KT 12/03 A3023 RMK A01 T01240029  RH  052%=      5-min Rain = 0
KSP2 052304Z 02012KT 12/03 A3023 RMK A01 T01240030  RH  053%=      5-min Rain = 0
KSP2 052305Z 03015KT 13/03 A3023 RMK A01 T01250030  RH  052%=      5-min Rain = 0
KSP2 052306Z 03017G23KT 13/03 A3022 RMK A01 T01250029  RH  052%=      5-min Rain = 0
KSP2 052307Z 03020KT 13/03 A3022 RMK A01 T01250029  RH  052%=      5-min Rain = 0
KSP2 052308Z 02019G24KT 12/03 A3022 RMK A01 T01240029  RH  052%=      5-min Rain = 0
KSP2 052309Z 03017KT 12/03 A3022 RMK A01 T01230029  RH  053%=      5-min Rain = 0
KSP2 052310Z 03020KT 12/03 A3022 RMK A01 T01230029  RH  052%=      5-min Rain = 0
KSP2 052311Z 03017G22KT 12/03 A3022 RMK A01 T01240029  RH  052%=      5-min Rain = 0
KSP2 052312Z 03017KT 13/03 A3022 RMK A01 T01250029  RH  052%=      5-min Rain = 0
KSP2 052313Z 02017G23KT 12/03 A3022 RMK A01 T01230030  RH  053%=      5-min Rain = 0
KSP2 052314Z 02017KT 12/03 A3023 RMK A01 T01220029  RH  053%=      5-min Rain = 0
KSP2 052315Z 02016KT 12/03 A3023 RMK A01 T01230028  RH  052%=      5-min Rain = 0
KSP2 052316Z 03015KT 12/03 A3023 RMK A01 T01230029  RH  052%=      5-min Rain = 0
KSP2 052317Z 03016KT 12/03 A3023 RMK A01 T01210029  RH  053%=      5-min Rain = 0
KSP2 052318Z 03012KT 12/03 A3023 RMK A01 T01200030  RH  054%=      5-min Rain = 0
KSP2 052319Z 04015KT 12/03 A3023 RMK A01 T01190030  RH  054%=      5-min Rain = 0
KSP2 052320Z 04016KT 12/03 A3023 RMK A01 T01180029  RH  055%=      5-min Rain = 0
KSP2 052321Z 03016KT 12/03 A3023 RMK A01 T01170029  RH  055%=      5-min Rain = 0
KSP2 052322Z 04015KT 12/03 A3023 RMK A01 T01160029  RH  055%=      5-min Rain = 0
KSP2 052323Z 04017KT 12/03 A3023 RMK A01 T01160028  RH  055%=      5-min Rain = 0
KSP2 052324Z 04012KT 12/03 A3023 RMK A01 T01150028  RH  055%=      5-min Rain = 0
KSP2 052325Z 04012KT 12/03 A3024 RMK A01 T01150028  RH  055%=      5-min Rain = 0
KSP2 052326Z 03012G17KT 11/03 A3024 RMK A01 T01140029  RH  056%=      5-min Rain = 0
KSP2 052327Z 04013KT 11/03 A3024 RMK A01 T01140029  RH  056%=      5-min Rain = 0
KSP2 052328Z 03016KT 11/03 A3024 RMK A01 T01130029  RH  056%=      5-min Rain = 0
KSP2 052329Z 03013KT 11/03 A3024 RMK A01 T01120029  RH  056%=      5-min Rain = 0
KSP2 052330Z 02010KT 11/03 A3024 RMK A01 T01120029  RH  057%=      5-min Rain = 0
KSP2 052331Z 03013KT 11/03 A3024 RMK A01 T01110029  RH  057%=      5-min Rain = 0
KSP2 052332Z 03011KT 11/03 A3024 RMK A01 T01110029  RH  057%=      5-min Rain = 0
KSP2 052333Z 03013KT 11/03 A3024 RMK A01 T01110029  RH  057%=      5-min Rain = 0
KSP2 052334Z 03015KT 11/03 A3024 RMK A01 T01110029  RH  057%=      5-min Rain = 0
KSP2 052335Z 03014KT 11/03 A3024 RMK A01 T01110029  RH  057%=      5-min Rain = 0
KSP2 052336Z 03013KT 11/03 A3024 RMK A01 T01130030  RH  057%=      5-min Rain = 0
KSP2 052337Z 02015KT 11/03 A3024 RMK A01 T01140030  RH  056%=      5-min Rain = 0
KSP2 052338Z 02014KT 12/03 A3024 RMK A01 T01150030  RH  056%=      5-min Rain = 0
KSP2 052339Z 03010KT 12/03 A3024 RMK A01 T01160031  RH  056%=      5-min Rain = 0
KSP2 052340Z 02011KT 12/03 A3024 RMK A01 T01170031  RH  055%=      5-min Rain = 0
KSP2 052341Z 02011KT 12/03 A3024 RMK A01 T01180031  RH  055%=      5-min Rain = 0
KSP2 052342Z 02013G18KT 12/03 A3024 RMK A01 T01190031  RH  055%=      5-min Rain = 0
KSP2 052343Z 02014KT 12/03 A3024 RMK A01 T01190031  RH  055%=      5-min Rain = 0
KSP2 052344Z 02017KT 12/03 A3024 RMK A01 T01190031  RH  055%=      5-min Rain = 0
KSP2 052345Z 01016KT 12/03 A3024 RMK A01 T01180030  RH  055%=      5-min Rain = 0
KSP2 052346Z 02015KT 12/03 A3024 RMK A01 T01170030  RH  055%=      5-min Rain = 0
KSP2 052347Z 01014KT 12/03 A3024 RMK A01 T01160030  RH  055%=      5-min Rain = 0
KSP2 052348Z 01014KT 12/03 A3024 RMK A01 T01160030  RH  055%=      5-min Rain = 0
KSP2 052349Z 02012G17KT 12/03 A3024 RMK A01 T01180030  RH  055%=      5-min Rain = 0
KSP2 052350Z 02018G23KT 12/03 A3024 RMK A01 T01190030  RH  054%=      5-min Rain = 0
KSP2 052351Z 02014KT 12/03 A3024 RMK A01 T01190029  RH  054%=      5-min Rain = 0
KSP2 052352Z 02016KT 12/03 A3024 RMK A01 T01190029  RH  054%=      5-min Rain = 0
KSP2 052353Z 02015KT 12/03 A3024 RMK A01 T01190028  RH  054%=      5-min Rain = 0
KSP2 052354Z 02013KT 12/03 A3024 RMK A01 T01200029  RH  054%=      5-min Rain = 0
KSP2 052355Z 01015KT 12/03 A3024 RMK A01 T01210029  RH  054%=      5-min Rain = 0
KSP2 052356Z 01016KT 12/03 A3024 RMK A01 T01210029  RH  053%=      5-min Rain = 0
KSP2 052357Z 01016KT 12/03 A3024 RMK A01 T01210028  RH  053%=      5-min Rain = 0
KSP2 052358Z 01011KT 12/03 A3024 RMK A01 T01210028  RH  053%=      5-min Rain = 0
KSP2 052359Z 02013G18KT 12/03 A3024 RMK A01 T01210029  RH  053%=      5-min Rain = 0
KSP2 060000Z 02011KT 12/03 A3024 RMK A01 T01210029  RH  053%=      5-min Rain = 0
KSP2 060001Z 03014KT 12/03 A3024 RMK A01 T01210029  RH  053%=      5-min Rain = 0
KSP2 060002Z 03011KT 12/03 A3024 RMK A01 T01210029  RH  053%=      5-min Rain = 0
KSP2 060003Z 04011KT 12/03 A3024 RMK A01 T01210030  RH  054%=      5-min Rain = 0
KSP2 060004Z 04014KT 12/03 A3024 RMK A01 T01200031  RH  054%=      5-min Rain = 0
KSP2 060005Z 04013KT 12/03 A3024 RMK A01 T01200031  RH  054%=      5-min Rain = 0
KSP2 060006Z 04012KT 12/03 A3024 RMK A01 T01200032  RH  055%=      5-min Rain = 0
KSP2 060007Z 03013KT 12/03 A3024 RMK A01 T01200032  RH  055%=      5-min Rain = 0
KSP2 060008Z 04014KT 12/03 A3024 RMK A01 T01200032  RH  055%=      5-min Rain = 0
KSP2 060009Z 03016KT 12/03 A3024 RMK A01 T01200032  RH  055%=      5-min Rain = 0
KSP2 060010Z 04013KT 12/03 A3024 RMK A01 T01200033  RH  055%=      5-min Rain = 0
KSP2 060011Z 03014KT 12/03 A3024 RMK A01 T01200033  RH  055%=      5-min Rain = 0
KSP2 060012Z 04012KT 12/03 A3024 RMK A01 T01200033  RH  055%=      5-min Rain = 0
KSP2 060013Z 05011KT 12/03 A3024 RMK A01 T01200033  RH  055%=      5-min Rain = 0
KSP2 060014Z 05014KT 12/03 A3024 RMK A01 T01190033  RH  055%=      5-min Rain = 0
KSP2 060015Z 05011KT 12/03 A3024 RMK A01 T01180032  RH  056%=      5-min Rain = 0
KSP2 060016Z 04012KT 12/03 A3024 RMK A01 T01170032  RH  056%=      5-min Rain = 0
KSP2 060017Z 05010KT 12/03 A3024 RMK A01 T01160032  RH  056%=      5-min Rain = 0
KSP2 060018Z 04011G16KT 12/03 A3025 RMK A01 T01160032  RH  056%=      5-min Rain = 0
KSP2 060019Z 04012KT 12/03 A3024 RMK A01 T01150032  RH  057%=      5-min Rain = 0
KSP2 060020Z 04011KT 11/03 A3025 RMK A01 T01140032  RH  057%=      5-min Rain = 0
KSP2 060021Z 04011KT 11/03 A3025 RMK A01 T01130031  RH  057%=      5-min Rain = 0
KSP2 060022Z 04012KT 11/03 A3025 RMK A01 T01120031  RH  058%=      5-min Rain = 0
KSP2 060023Z 04010KT 11/03 A3025 RMK A01 T01110031  RH  058%=      5-min Rain = 0
KSP2 060024Z 04012G17KT 11/03 A3025 RMK A01 T01110031  RH  058%=      5-min Rain = 0
KSP2 060025Z 04013KT 11/03 A3025 RMK A01 T01100031  RH  058%=      5-min Rain = 0
KSP2 060026Z 03012KT 11/03 A3025 RMK A01 T01100031  RH  058%=      5-min Rain = 0
KSP2 060027Z 04012KT 11/03 A3025 RMK A01 T01090031  RH  059%=      5-min Rain = 0
KSP2 060028Z 04011KT 11/03 A3025 RMK A01 T01080031  RH  059%=      5-min Rain = 0
KSP2 060029Z 04010KT 11/03 A3025 RMK A01 T01080031  RH  059%=      5-min Rain = 0
KSP2 060030Z 04009KT 11/03 A3025 RMK A01 T01080031  RH  059%=      5-min Rain = 0
KSP2 060031Z 04011KT 11/03 A3025 RMK A01 T01070030  RH  059%=      5-min Rain = 0
KSP2 060032Z 04008KT 11/03 A3025 RMK A01 T01060030  RH  059%=      5-min Rain = 0
KSP2 060033Z 04009KT 11/03 A3025 RMK A01 T01050030  RH  060%=      5-min Rain = 0
KSP2 060034Z 03011KT 11/03 A3025 RMK A01 T01050030  RH  060%=      5-min Rain = 0
KSP2 060035Z 04010KT 10/03 A3025 RMK A01 T01040030  RH  060%=      5-min Rain = 0
KSP2 060036Z 04010KT 10/03 A3025 RMK A01 T01040030  RH  060%=      5-min Rain = 0
KSP2 060037Z 04009KT 10/03 A3025 RMK A01 T01040030  RH  060%=      5-min Rain = 0
KSP2 060038Z 04010KT 10/03 A3025 RMK A01 T01030030  RH  060%=      5-min Rain = 0
KSP2 060039Z 04009KT 10/03 A3025 RMK A01 T01030030  RH  061%=      5-min Rain = 0
KSP2 060040Z 04009KT 10/03 A3025 RMK A01 T01020029  RH  061%=      5-min Rain = 0
KSP2 060041Z 04008KT 10/03 A3025 RMK A01 T01010029  RH  061%=      5-min Rain = 0
KSP2 060042Z 04007KT 10/03 A3025 RMK A01 T01000029  RH  061%=      5-min Rain = 0
KSP2 060043Z 04007KT 10/03 A3025 RMK A01 T00990029  RH  061%=      5-min Rain = 0
KSP2 060044Z 04007KT 10/03 A3025 RMK A01 T00980028  RH  062%=      5-min Rain = 0
KSP2 060045Z 04007KT 10/03 A3025 RMK A01 T00970028  RH  062%=      5-min Rain = 0
KSP2 060046Z 04007KT 10/03 A3025 RMK A01 T00970028  RH  062%=      5-min Rain = 0
KSP2 060047Z 04008KT 10/03 A3025 RMK A01 T00970028  RH  062%=      5-min Rain = 0
KSP2 060048Z 04007KT 10/03 A3026 RMK A01 T00960028  RH  063%=      5-min Rain = 0
KSP2 060049Z 04007KT 10/03 A3026 RMK A01 T00950028  RH  063%=      5-min Rain = 0
KSP2 060050Z 04007KT 10/03 A3026 RMK A01 T00950028  RH  063%=      5-min Rain = 0
KSP2 060051Z 03006KT 09/03 A3026 RMK A01 T00940028  RH  063%=      5-min Rain = 0
KSP2 060052Z 04006KT 09/03 A3026 RMK A01 T00930028  RH  063%=      5-min Rain = 0
KSP2 060053Z 04007KT 09/03 A3026 RMK A01 T00930027  RH  064%=      5-min Rain = 0
KSP2 060054Z 04008KT 09/03 A3026 RMK A01 T00920027  RH  064%=      5-min Rain = 0
KSP2 060055Z 03007KT 09/03 A3026 RMK A01 T00920028  RH  064%=      5-min Rain = 0
KSP2 060056Z 04006KT 09/03 A3026 RMK A01 T00910027  RH  064%=      5-min Rain = 0
KSP2 060057Z 04006KT 09/03 A3026 RMK A01 T00910027  RH  064%=      5-min Rain = 0
KSP2 060058Z 04006KT 09/03 A3026 RMK A01 T00910027  RH  064%=      5-min Rain = 0
KSP2 060059Z 04006KT 09/03 A3026 RMK A01 T00900027  RH  065%=      5-min Rain = 0
KSP2 060100Z 04005KT 09/03 A3026 RMK A01 T00890026  RH  065%=      5-min Rain = 0
KSP2 060101Z 04006KT 09/03 A3026 RMK A01 T00890027  RH  065%=      5-min Rain = 0
KSP2 060102Z 04005KT 09/03 A3026 RMK A01 T00880026  RH  065%=      5-min Rain = 0
KSP2 060103Z 04005KT 09/03 A3026 RMK A01 T00870026  RH  065%=      5-min Rain = 0
KSP2 060104Z 04004KT 09/03 A3026 RMK A01 T00870026  RH  066%=      5-min Rain = 0
KSP2 060105Z 05004KT 09/03 A3026 RMK A01 T00860026  RH  066%=      5-min Rain = 0
KSP2 060106Z 04005KT 09/03 A3026 RMK A01 T00850025  RH  066%=      5-min Rain = 0
KSP2 060107Z 05005KT 08/03 A3027 RMK A01 T00840025  RH  066%=      5-min Rain = 0
KSP2 060108Z 05005KT 08/03 A3027 RMK A01 T00840025  RH  066%=      5-min Rain = 0
KSP2 060109Z 05006KT 08/02 A3027 RMK A01 T00830024  RH  067%=      5-min Rain = 0
KSP2 060110Z 05005KT 08/02 A3027 RMK A01 T00820024  RH  067%=      5-min Rain = 0
KSP2 060111Z 06006KT 08/02 A3027 RMK A01 T00810024  RH  067%=      5-min Rain = 0
KSP2 060112Z 06006KT 08/02 A3027 RMK A01 T00790022  RH  067%=      5-min Rain = 0
KSP2 060113Z 06006KT 08/02 A3027 RMK A01 T00770022  RH  068%=      5-min Rain = 0
KSP2 060114Z 06005KT 08/02 A3027 RMK A01 T00750021  RH  069%=      5-min Rain = 0
KSP2 060115Z 06004KT 07/02 A3027 RMK A01 T00740022  RH  069%=      5-min Rain = 0
KSP2 060116Z 05004KT 07/02 A3027 RMK A01 T00730022  RH  070%=      5-min Rain = 0
KSP2 060117Z 06005KT 07/02 A3027 RMK A01 T00720022  RH  070%=      5-min Rain = 0
KSP2 060118Z 05005KT 07/02 A3027 RMK A01 T00720021  RH  070%=      5-min Rain = 0
KSP2 060119Z 05006KT 07/02 A3027 RMK A01 T00710022  RH  071%=      5-min Rain = 0
KSP2 060120Z 05006KT 07/02 A3027 RMK A01 T00710022  RH  071%=      5-min Rain = 0
KSP2 060121Z 06006KT 07/02 A3027 RMK A01 T00720023  RH  071%=      5-min Rain = 0
KSP2 060122Z 06006KT 07/02 A3027 RMK A01 T00720022  RH  070%=      5-min Rain = 0
KSP2 060123Z 05006KT 07/02 A3027 RMK A01 T00720022  RH  070%=      5-min Rain = 0
KSP2 060124Z 05006KT 07/02 A3027 RMK A01 T00720022  RH  070%=      5-min Rain = 0
KSP2 060125Z 06006KT 07/02 A3027 RMK A01 T00710022  RH  071%=      5-min Rain = 0
KSP2 060126Z 06007KT 07/02 A3027 RMK A01 T00710021  RH  071%=      5-min Rain = 0
KSP2 060127Z 06007KT 07/02 A3027 RMK A01 T00700022  RH  071%=      5-min Rain = 0
KSP2 060128Z 06006KT 07/02 A3027 RMK A01 T00700022  RH  072%=      5-min Rain = 0
KSP2 060129Z 06006KT 07/02 A3027 RMK A01 T00700023  RH  072%=      5-min Rain = 0
KSP2 060130Z 06006KT 07/02 A3027 RMK A01 T00700023  RH  072%=      5-min Rain = 0
KSP2 060131Z 06006KT 07/02 A3027 RMK A01 T00700023  RH  072%=      5-min Rain = 0
KSP2 060132Z 06006KT 07/02 A3027 RMK A01 T00710024  RH  072%=      5-min Rain = 0
KSP2 060133Z 06006KT 07/02 A3027 RMK A01 T00710023  RH  072%=      5-min Rain = 0
KSP2 060134Z 07006KT 07/02 A3027 RMK A01 T00700023  RH  072%=      5-min Rain = 0
KSP2 060135Z 06006KT 07/02 A3028 RMK A01 T00700023  RH  072%=      5-min Rain = 0
KSP2 060136Z 06006KT 07/02 A3028 RMK A01 T00690024  RH  073%=      5-min Rain = 0
KSP2 060137Z 05005KT 07/02 A3028 RMK A01 T00690023  RH  073%=      5-min Rain = 0
KSP2 060138Z 05007KT 07/02 A3028 RMK A01 T00690023  RH  073%=      5-min Rain = 0
KSP2 060139Z 05006KT 07/02 A3028 RMK A01 T00690023  RH  073%=      5-min Rain = 0
KSP2 060140Z 05006KT 07/02 A3028 RMK A01 T00700024  RH  072%=      5-min Rain = 0
KSP2 060141Z 06006KT 07/02 A3028 RMK A01 T00700023  RH  072%=      5-min Rain = 0
KSP2 060142Z 06005KT 07/02 A3028 RMK A01 T00690023  RH  072%=      5-min Rain = 0
KSP2 060143Z 06006KT 07/02 A3028 RMK A01 T00690023  RH  073%=      5-min Rain = 0
KSP2 060144Z 06007KT 07/02 A3028 RMK A01 T00680023  RH  073%=      5-min Rain = 0
KSP2 060145Z 06006KT 07/02 A3028 RMK A01 T00680024  RH  074%=      5-min Rain = 0
KSP2 060146Z 06005KT 07/02 A3028 RMK A01 T00680024  RH  074%=      5-min Rain = 0
KSP2 060147Z 06005KT 07/02 A3028 RMK A01 T00670023  RH  074%=      5-min Rain = 0
KSP2 060148Z 05004KT 07/02 A3028 RMK A01 T00670023  RH  074%=      5-min Rain = 0
KSP2 060149Z 05005KT 07/02 A3028 RMK A01 T00670023  RH  074%=      5-min Rain = 0
KSP2 060150Z 05005KT 07/02 A3029 RMK A01 T00660023  RH  074%=      5-min Rain = 0
KSP2 060151Z 05004KT 07/02 A3029 RMK A01 T00660023  RH  074%=      5-min Rain = 0
KSP2 060152Z 05004KT 07/02 A3029 RMK A01 T00650023  RH  074%=      5-min Rain = 0
KSP2 060153Z 05004KT 07/02 A3029 RMK A01 T00650022  RH  074%=      5-min Rain = 0
KSP2 060154Z 05004KT 06/02 A3029 RMK A01 T00640022  RH  075%=      5-min Rain = 0
KSP2 060155Z 06005KT 06/02 A3029 RMK A01 T00640023  RH  075%=      5-min Rain = 0
KSP2 060156Z 05004KT 06/02 A3029 RMK A01 T00630022  RH  075%=      5-min Rain = 0
KSP2 060157Z 06004KT 06/02 A3029 RMK A01 T00620021  RH  075%=      5-min Rain = 0
KSP2 060158Z 06005KT 06/02 A3029 RMK A01 T00610021  RH  075%=      5-min Rain = 0
KSP2 060159Z 06005KT 06/02 A3029 RMK A01 T00600020  RH  076%=      5-min Rain = 0
KSP2 060200Z 06005KT 06/02 A3029 RMK A01 T00580020  RH  076%=      5-min Rain = 0
KSP2 060201Z 07005KT 06/02 A3029 RMK A01 T00580021  RH  077%=      5-min Rain = 0
KSP2 060202Z 06005KT 06/02 A3029 RMK A01 T00560021  RH  078%=      5-min Rain = 0
KSP2 060203Z 06005KT 06/02 A3029 RMK A01 T00560021  RH  078%=      5-min Rain = 0
KSP2 060204Z 06004KT 06/02 A3029 RMK A01 T00550021  RH  079%=      5-min Rain = 0
KSP2 060205Z 06004KT 06/02 A3029 RMK A01 T00550022  RH  079%=      5-min Rain = 0
KSP2 060206Z 05004KT 06/02 A3029 RMK A01 T00550022  RH  079%=      5-min Rain = 0
KSP2 060207Z 06005KT 06/02 A303 RMK A01 T00560022  RH  079%=      5-min Rain = 0
KSP2 060208Z 06005KT 06/02 A303 RMK A01 T00550021  RH  078%=      5-min Rain = 0
KSP2 060209Z 06005KT 06/02 A303 RMK A01 T00550021  RH  078%=      5-min Rain = 0
KSP2 060210Z 05005KT 06/02 A303 RMK A01 T00550020  RH  078%=      5-min Rain = 0
KSP2 060211Z 06005KT 06/02 A303 RMK A01 T00550021  RH  079%=      5-min Rain = 0
KSP2 060212Z 06006KT 06/02 A303 RMK A01 T00550021  RH  078%=      5-min Rain = 0
KSP2 060213Z 06006KT 06/02 A303 RMK A01 T00550021  RH  078%=      5-min Rain = 0
KSP2 060214Z 06006KT 06/02 A303 RMK A01 T00550021  RH  079%=      5-min Rain = 0
KSP2 060215Z 06006KT 06/02 A303 RMK A01 T00560022  RH  079%=      5-min Rain = 0
KSP2 060216Z 05006KT 06/02 A303 RMK A01 T00560022  RH  079%=      5-min Rain = 0
KSP2 060217Z 06005KT 06/02 A303 RMK A01 T00550022  RH  079%=      5-min Rain = 0
KSP2 060218Z 05006KT 06/02 A303 RMK A01 T00560022  RH  079%=      5-min Rain = 0
KSP2 060219Z 05006KT 06/02 A303 RMK A01 T00560022  RH  079%=      5-min Rain = 0
KSP2 060220Z 05006KT 06/02 A303 RMK A01 T00560022  RH  079%=      5-min Rain = 0
KSP2 060221Z 05006KT 06/02 A303 RMK A01 T00560023  RH  079%=      5-min Rain = 0
KSP2 060222Z 05006KT 06/02 A303 RMK A01 T00570023  RH  079%=      5-min Rain = 0
KSP2 060223Z 05005KT 06/02 A303 RMK A01 T00570023  RH  079%=      5-min Rain = 0
KSP2 060224Z 05005KT 06/02 A303 RMK A01 T00570023  RH  079%=      5-min Rain = 0
KSP2 060225Z 05005KT 06/02 A303 RMK A01 T00570023  RH  079%=      5-min Rain = 0
KSP2 060226Z 05005KT 06/02 A303 RMK A01 T00570023  RH  079%=      5-min Rain = 0
KSP2 060227Z 05005KT 06/02 A303 RMK A01 T00570023  RH  079%=      5-min Rain = 0
KSP2 060228Z 05005KT 06/02 A303 RMK A01 T00570023  RH  079%=      5-min Rain = 0
KSP2 060229Z 04005KT 06/02 A303 RMK A01 T00570024  RH  080%=      5-min Rain = 0
KSP2 060230Z 04005KT 06/02 A303 RMK A01 T00570024  RH  080%=      5-min Rain = 0
KSP2 060231Z 04005KT 06/03 A303 RMK A01 T00570025  RH  080%=      5-min Rain = 0
KSP2 060232Z 04005KT 06/03 A303 RMK A01 T00570025  RH  080%=      5-min Rain = 0
KSP2 060233Z 04004KT 06/03 A303 RMK A01 T00580025  RH  079%=      5-min Rain = 0
KSP2 060234Z 04004KT 06/02 A303 RMK A01 T00580024  RH  079%=      5-min Rain = 0
KSP2 060235Z 03003KT 06/02 A303 RMK A01 T00560021  RH  078%=      5-min Rain = 0
KSP2 060236Z 04003KT 05/02 A303 RMK A01 T00530017  RH  078%=      5-min Rain = 0
KSP2 060237Z 04003KT 05/02 A303 RMK A01 T00500015  RH  078%=      5-min Rain = 0
KSP2 060238Z 04003KT 05/01 A303 RMK A01 T00480014  RH  079%=      5-min Rain = 0
KSP2 060239Z 04003KT 05/01 A303 RMK A01 T00460014  RH  080%=      5-min Rain = 0
KSP2 060240Z 04003KT 04/02 A303 RMK A01 T00440015  RH  081%=      5-min Rain = 0
KSP2 060241Z 04002KT 04/01 A303 RMK A01 T00430014  RH  082%=      5-min Rain = 0
KSP2 060242Z 05002KT 04/01 A303 RMK A01 T00420014  RH  082%=      5-min Rain = 0
KSP2 060243Z 05002KT 04/01 A303 RMK A01 T00410014  RH  083%=      5-min Rain = 0
KSP2 060244Z 05002KT 04/01 A303 RMK A01 T00400014  RH  083%=      5-min Rain = 0
KSP2 060245Z 06002KT 04/01 A303 RMK A01 T00400014  RH  083%=      5-min Rain = 0
KSP2 060246Z 06002KT 04/01 A303 RMK A01 T00390013  RH  083%=      5-min Rain = 0
KSP2 060247Z 06002KT 04/01 A303 RMK A01 T00380009  RH  082%=      5-min Rain = 0
KSP2 060248Z 06002KT 04/01 A303 RMK A01 T00360008  RH  082%=      5-min Rain = 0
KSP2 060249Z 06002KT 04/01 A303 RMK A01 T00350010  RH  083%=      5-min Rain = 0
KSP2 060250Z 06002KT 04/01 A303 RMK A01 T00360013  RH  085%=      5-min Rain = 0
KSP2 060251Z 06001KT 04/01 A303 RMK A01 T00360014  RH  085%=      5-min Rain = 0
KSP2 060252Z 06001KT 04/01 A303 RMK A01 T00360014  RH  085%=      5-min Rain = 0
KSP2 060253Z 08000KT 04/01 A303 RMK A01 T00360013  RH  085%=      5-min Rain = 0
KSP2 060254Z 09000KT 04/01 A303 RMK A01 T00350012  RH  085%=      5-min Rain = 0
KSP2 060255Z 10001KT 03/01 A303 RMK A01 T00340011  RH  085%=      5-min Rain = 0
KSP2 060256Z 08001KT 03/01 A303 RMK A01 T00330009  RH  084%=      5-min Rain = 0
KSP2 060257Z 08001KT 03/01 A303 RMK A01 T00320010  RH  085%=      5-min Rain = 0
KSP2 060258Z 07001KT 03/01 A3031 RMK A01 T00320011  RH  086%=      5-min Rain = 0
KSP2 060259Z 07000KT 03/01 A3031 RMK A01 T00310010  RH  086%=      5-min Rain = 0
KSP2 060300Z 07000KT 03/01 A3031 RMK A01 T00300009  RH  086%=      5-min Rain = 0
KSP2 060301Z 07001KT 03/01 A3031 RMK A01 T00290008  RH  086%=      5-min Rain = 0
KSP2 060302Z 06001KT 03/01 A3031 RMK A01 T00290011  RH  088%=      5-min Rain = 0
KSP2 060303Z 06002KT 03/02 A3031 RMK A01 T00300015  RH  089%=      5-min Rain = 0
KSP2 060304Z 07002KT 03/01 A3031 RMK A01 T00300014  RH  089%=      5-min Rain = 0
KSP2 060305Z 06001KT 03/01 A3031 RMK A01 T00300013  RH  088%=      5-min Rain = 0
KSP2 060306Z 06002KT 03/01 A3031 RMK A01 T00300011  RH  087%=      5-min Rain = 0
KSP2 060307Z 06001KT 03/01 A3031 RMK A01 T00290009  RH  087%=      5-min Rain = 0
KSP2 060308Z 06001KT 03/01 A3031 RMK A01 T00280006  RH  086%=      5-min Rain = 0
KSP2 060309Z 07001KT 03/01 A3031 RMK A01 T00270008  RH  087%=      5-min Rain = 0
KSP2 060310Z 07001KT 03/01 A3031 RMK A01 T00270009  RH  088%=      5-min Rain = 0
KSP2 060311Z 07001KT 03/01 A3031 RMK A01 T00280008  RH  087%=      5-min Rain = 0
KSP2 060312Z 07001KT 03/00 A3031 RMK A01 T00260001  RH  084%=      5-min Rain = 0
KSP2 060313Z 06000KT 02/M01 A3031 RMK A01 T00211011  RH  079%=      5-min Rain = 0
KSP2 060314Z 00000KT 02/M01 A3031 RMK A01 T00181010  RH  082%=      5-min Rain = 0
KSP2 060315Z 00000KT 02/M00 A3031 RMK A01 T00171003  RH  086%=      5-min Rain = 0
KSP2 060316Z 00000KT 02/M00 A3031 RMK A01 T00171002  RH  088%=      5-min Rain = 0
KSP2 060317Z 00000KT 02/00 A3031 RMK A01 T001700-0  RH  088%=      5-min Rain = 0
KSP2 060318Z 22000KT 02/M00 A3031 RMK A01 T00171001  RH  088%=      5-min Rain = 0
KSP2 060319Z 23001KT 02/M00 A3031 RMK A01 T00161004  RH  087%=      5-min Rain = 0
KSP2 060320Z 24001KT 02/M01 A3031 RMK A01 T00151006  RH  086%=      5-min Rain = 0
KSP2 060321Z 24001KT 01/M01 A3032 RMK A01 T00141007  RH  086%=      5-min Rain = 0
KSP2 060322Z 25001KT 01/M01 A3032 RMK A01 T00121008  RH  087%=      5-min Rain = 0
KSP2 060323Z 25001KT 01/M01 A3032 RMK A01 T00121006  RH  088%=      5-min Rain = 0
KSP2 060324Z 26001KT 01/M01 A3032 RMK A01 T00111006  RH  089%=      5-min Rain = 0
KSP2 060325Z 25001KT 01/M00 A3032 RMK A01 T00121003  RH  090%=      5-min Rain = 0
KSP2 060326Z 27001KT 01/M01 A3032 RMK A01 T00121005  RH  089%=      5-min Rain = 0
KSP2 060327Z 29001KT 01/M01 A3032 RMK A01 T00091011  RH  086%=      5-min Rain = 0
KSP2 060328Z 29001KT 01/M01 A3032 RMK A01 T00081011  RH  087%=      5-min Rain = 0
KSP2 060329Z 29001KT 01/M01 A3032 RMK A01 T00071012  RH  087%=      5-min Rain = 0
KSP2 060330Z 29000KT 01/M01 A3032 RMK A01 T00051014  RH  088%=      5-min Rain = 0
KSP2 060331Z 29000KT 00/M01 A3032 RMK A01 T00041011  RH  090%=      5-min Rain = 0
KSP2 060332Z 30001KT 00/M01 A3032 RMK A01 T00041011  RH  090%=      5-min Rain = 0
KSP2 060333Z 00000KT 00/M01 A3032 RMK A01 T00031012  RH  090%=      5-min Rain = 0
KSP2 060334Z 00000KT 00/M01 A3032 RMK A01 T00021013  RH  090%=      5-min Rain = 0
KSP2 060335Z 32000KT 00/M01 A3032 RMK A01 T00011014  RH  090%=      5-min Rain = 0
KSP2 060336Z 32000KT 00/M01 A3032 RMK A01 T00011012  RH  091%=      5-min Rain = 0
KSP2 060337Z 32000KT 00/M01 A3032 RMK A01 T00011011  RH  092%=      5-min Rain = 0
KSP2 060338Z 32000KT 00/M01 A3032 RMK A01 T00011012  RH  091%=      5-min Rain = 0
KSP2 060339Z 34001KT 00/M01 A3032 RMK A01 T00011011  RH  092%=      5-min Rain = 0
KSP2 060340Z 35001KT 00/M01 A3032 RMK A01 T00021009  RH  092%=      5-min Rain = 0
KSP2 060341Z 33001KT 00/M01 A3032 RMK A01 T00021009  RH  092%=      5-min Rain = 0
KSP2 060342Z 35001KT 00/M01 A3032 RMK A01 T00021009  RH  093%=      5-min Rain = 0
KSP2 060343Z 33001KT 00/M01 A3032 RMK A01 T00021008  RH  093%=      5-min Rain = 0
KSP2 060344Z 33001KT 00/M01 A3032 RMK A01 T00031006  RH  093%=      5-min Rain = 0
KSP2 060345Z 32002KT 00/M01 A3032 RMK A01 T00041005  RH  094%=      5-min Rain = 0
KSP2 060346Z 33001KT 00/M01 A3032 RMK A01 T00041005  RH  094%=      5-min Rain = 0
KSP2 060347Z 32001KT 00/M01 A3032 RMK A01 T00041005  RH  094%=      5-min Rain = 0
KSP2 060348Z 32002KT 00/M01 A3033 RMK A01 T00041005  RH  093%=      5-min Rain = 0
KSP2 060349Z 33001KT 00/M01 A3033 RMK A01 T00041005  RH  093%=      5-min Rain = 0
KSP2 060350Z 34001KT 00/M01 A3033 RMK A01 T00041007  RH  093%=      5-min Rain = 0
KSP2 060351Z 33001KT 00/M01 A3033 RMK A01 T00031009  RH  092%=      5-min Rain = 0
KSP2 060352Z 32001KT 00/M01 A3033 RMK A01 T00041007  RH  092%=      5-min Rain = 0
KSP2 060353Z 35001KT 01/M01 A3033 RMK A01 T00051005  RH  093%=      5-min Rain = 0
KSP2 060354Z 35001KT 01/M00 A3033 RMK A01 T00071003  RH  093%=      5-min Rain = 0
KSP2 060355Z 35001KT 01/M00 A3033 RMK A01 T00071003  RH  093%=      5-min Rain = 0
KSP2 060356Z 35001KT 01/M00 A3033 RMK A01 T00071004  RH  092%=      5-min Rain = 0
KSP2 060357Z 34001KT 01/M01 A3033 RMK A01 T00061006  RH  092%=      5-min Rain = 0
KSP2 060358Z 35001KT 00/M01 A3033 RMK A01 T00041009  RH  091%=      5-min Rain = 0
KSP2 060359Z 01001KT 00/M01 A3032 RMK A01 T00041008  RH  092%=      5-min Rain = 0
KSP2 060400Z 35001KT 01/M01 A3033 RMK A01 T00051005  RH  093%=      5-min Rain = 0
KSP2 060401Z 35001KT 01/M00 A3033 RMK A01 T00061004  RH  093%=      5-min Rain = 0
KSP2 060402Z 35001KT 01/M01 A3033 RMK A01 T00061005  RH  093%=      5-min Rain = 0
KSP2 060403Z 35001KT 01/M00 A3033 RMK A01 T00061004  RH  093%=      5-min Rain = 0
KSP2 060404Z 35001KT 01/M01 A3032 RMK A01 T00061005  RH  093%=      5-min Rain = 0
KSP2 060405Z 00001KT 01/M00 A3032 RMK A01 T00061004  RH  093%=      5-min Rain = 0
KSP2 060406Z 35001KT 01/M00 A3032 RMK A01 T00071002  RH  094%=      5-min Rain = 0
KSP2 060407Z 35001KT 01/M00 A3032 RMK A01 T00071002  RH  093%=      5-min Rain = 0
KSP2 060408Z 35001KT 01/M00 A3032 RMK A01 T00081001  RH  094%=      5-min Rain = 0
KSP2 060409Z 35001KT 01/M00 A3032 RMK A01 T00091001  RH  094%=      5-min Rain = 0
KSP2 060410Z 35001KT 01/M00 A3032 RMK A01 T00081002  RH  093%=      5-min Rain = 0
KSP2 060411Z 35001KT 01/M00 A3033 RMK A01 T00081004  RH  092%=      5-min Rain = 0
KSP2 060412Z 35001KT 01/M01 A3033 RMK A01 T00061008  RH  090%=      5-min Rain = 0
KSP2 060413Z 35001KT 01/M01 A3032 RMK A01 T00061009  RH  090%=      5-min Rain = 0
KSP2 060414Z 35001KT 01/M01 A3032 RMK A01 T00071006  RH  091%=      5-min Rain = 0
KSP2 060415Z 00001KT 01/M00 A3033 RMK A01 T00091002  RH  093%=      5-min Rain = 0
KSP2 060416Z 00001KT 01/00 A3033 RMK A01 T00100001  RH  094%=      5-min Rain = 0
KSP2 060417Z 36001KT 01/00 A3033 RMK A01 T00110002  RH  094%=      5-min Rain = 0
KSP2 060418Z 00001KT 01/00 A3033 RMK A01 T00120004  RH  094%=      5-min Rain = 0
KSP2 060419Z 36001KT 01/01 A3033 RMK A01 T00130006  RH  094%=      5-min Rain = 0
KSP2 060420Z 35001KT 01/01 A3033 RMK A01 T00140005  RH  094%=      5-min Rain = 0
KSP2 060421Z 36001KT 01/00 A3033 RMK A01 T00130003  RH  093%=      5-min Rain = 0
KSP2 060422Z 35001KT 01/M00 A3033 RMK A01 T00111001  RH  091%=      5-min Rain = 0
KSP2 060423Z 35001KT 01/M01 A3033 RMK A01 T00101005  RH  090%=      5-min Rain = 0
KSP2 060424Z 34002KT 01/M01 A3033 RMK A01 T00091005  RH  090%=      5-min Rain = 0
KSP2 060425Z 35001KT 01/M01 A3033 RMK A01 T00091005  RH  091%=      5-min Rain = 0
KSP2 060426Z 00002KT 01/M00 A3033 RMK A01 T00091004  RH  091%=      5-min Rain = 0
KSP2 060427Z 35002KT 01/M00 A3033 RMK A01 T00091003  RH  091%=      5-min Rain = 0
KSP2 060428Z 00001KT 01/M01 A3033 RMK A01 T00071007  RH  090%=      5-min Rain = 0
KSP2 060429Z 01002KT 00/M01 A3033 RMK A01 T00041012  RH  089%=      5-min Rain = 0
KSP2 060430Z 36002KT 01/M01 A3033 RMK A01 T00051008  RH  091%=      5-min Rain = 0
KSP2 060431Z 01002KT 01/M00 A3033 RMK A01 T00061004  RH  093%=      5-min Rain = 0
KSP2 060432Z 01002KT 01/M00 A3033 RMK A01 T00071002  RH  094%=      5-min Rain = 0
KSP2 060433Z 01001KT 01/00 A3033 RMK A01 T000800-0  RH  094%=      5-min Rain = 0
KSP2 060434Z 01002KT 01/00 A3033 RMK A01 T00090001  RH  095%=      5-min Rain = 0
KSP2 060435Z 02002KT 01/00 A3033 RMK A01 T00100002  RH  095%=      5-min Rain = 0
KSP2 060436Z 03002KT 01/00 A3033 RMK A01 T00100003  RH  095%=      5-min Rain = 0
KSP2 060437Z 03002KT 01/00 A3033 RMK A01 T00110004  RH  095%=      5-min Rain = 0
KSP2 060438Z 03002KT 01/00 A3033 RMK A01 T00110004  RH  095%=      5-min Rain = 0
KSP2 060439Z 04002KT 01/00 A3033 RMK A01 T00110003  RH  094%=      5-min Rain = 0
KSP2 060440Z 04001KT 01/00 A3033 RMK A01 T00110002  RH  094%=      5-min Rain = 0
KSP2 060441Z 04001KT 01/00 A3033 RMK A01 T00110002  RH  094%=      5-min Rain = 0
KSP2 060442Z 04001KT 01/00 A3033 RMK A01 T00110001  RH  094%=      5-min Rain = 0
KSP2 060443Z 06000KT 01/M00 A3033 RMK A01 T00081004  RH  092%=      5-min Rain = 0
KSP2 060444Z 06001KT 01/M00 A3033 RMK A01 T00071004  RH  092%=      5-min Rain = 0
KSP2 060445Z 07001KT 01/00 A3033 RMK A01 T000900-0  RH  094%=      5-min Rain = 0
KSP2 060446Z 07001KT 01/01 A3033 RMK A01 T00120005  RH  095%=      5-min Rain = 0
KSP2 060447Z 07001KT 01/01 A3033 RMK A01 T00140008  RH  096%=      5-min Rain = 0
KSP2 060448Z 08001KT 02/01 A3033 RMK A01 T00160011  RH  097%=      5-min Rain = 0
KSP2 060449Z 07001KT 02/01 A3033 RMK A01 T00170013  RH  097%=      5-min Rain = 0
KSP2 060450Z 07001KT 02/01 A3033 RMK A01 T00160009  RH  096%=      5-min Rain = 0
KSP2 060451Z 06001KT 01/01 A3033 RMK A01 T00130006  RH  095%=      5-min Rain = 0
KSP2 060452Z 05002KT 01/00 A3033 RMK A01 T00100000  RH  093%=      5-min Rain = 0
KSP2 060453Z 04001KT 01/M00 A3033 RMK A01 T00081003  RH  092%=      5-min Rain = 0
KSP2 060454Z 03002KT 01/M00 A3033 RMK A01 T00071004  RH  092%=      5-min Rain = 0
KSP2 060455Z 02002KT 01/M01 A3033 RMK A01 T00071005  RH  092%=      5-min Rain = 0
KSP2 060456Z 02002KT 01/M01 A3033 RMK A01 T00061005  RH  092%=      5-min Rain = 0
KSP2 060457Z 02002KT 01/M01 A3033 RMK A01 T00061005  RH  093%=      5-min Rain = 0
KSP2 060458Z 01002KT 01/M00 A3033 RMK A01 T00071002  RH  094%=      5-min Rain = 0
KSP2 060459Z 00002KT 01/M00 A3033 RMK A01 T00071001  RH  094%=      5-min Rain = 0
KSP2 060500Z 35002KT 01/M00 A3033 RMK A01 T00071001  RH  094%=      5-min Rain = 0
KSP2 060501Z 35002KT 01/M00 A3033 RMK A01 T00061003  RH  094%=      5-min Rain = 0
KSP2 060502Z 35001KT 01/M00 A3033 RMK A01 T00051003  RH  094%=      5-min Rain = 0
KSP2 060503Z 34001KT 01/M00 A3033 RMK A01 T00051004  RH  094%=      5-min Rain = 0
KSP2 060504Z 34001KT 01/M00 A3033 RMK A01 T00051004  RH  094%=      5-min Rain = 0
KSP2 060505Z 36002KT 01/M00 A3033 RMK A01 T00051003  RH  094%=      5-min Rain = 0
KSP2 060506Z 36001KT 01/M00 A3033 RMK A01 T00061002  RH  094%=      5-min Rain = 0
KSP2 060507Z 01001KT 01/M00 A3033 RMK A01 T00061002  RH  095%=      5-min Rain = 0
KSP2 060508Z 34001KT 01/M00 A3033 RMK A01 T00061001  RH  095%=      5-min Rain = 0
KSP2 060509Z 34001KT 01/M00 A3033 RMK A01 T00061001  RH  095%=      5-min Rain = 0
KSP2 060510Z 33001KT 01/00 A3033 RMK A01 T000700-0  RH  095%=      5-min Rain = 0
KSP2 060511Z 34001KT 01/M00 A3033 RMK A01 T00061002  RH  094%=      5-min Rain = 0
KSP2 060512Z 33001KT 01/M00 A3033 RMK A01 T00061003  RH  094%=      5-min Rain = 0
KSP2 060513Z 32001KT 01/M00 A3033 RMK A01 T00061003  RH  094%=      5-min Rain = 0
KSP2 060514Z 31001KT 00/M01 A3033 RMK A01 T00041007  RH  093%=      5-min Rain = 0
KSP2 060515Z 32001KT 00/M01 A3033 RMK A01 T00021009  RH  092%=      5-min Rain = 0
KSP2 060516Z 32001KT 00/M01 A3033 RMK A01 T00031008  RH  093%=      5-min Rain = 0
KSP2 060517Z 32000KT 00/M01 A3033 RMK A01 T00031006  RH  094%=      5-min Rain = 0
KSP2 060518Z 34000KT 00/M00 A3033 RMK A01 T00041004  RH  095%=      5-min Rain = 0
KSP2 060519Z 35000KT 01/00 A3033 RMK A01 T000600-0  RH  096%=      5-min Rain = 0
KSP2 060520Z 00000KT 01/00 A3033 RMK A01 T00080003  RH  096%=      5-min Rain = 0
KSP2 060521Z 00000KT 01/01 A3033 RMK A01 T00100005  RH  097%=      5-min Rain = 0
KSP2 060522Z 00001KT 01/01 A3033 RMK A01 T00100005  RH  097%=      5-min Rain = 0
KSP2 060523Z 00001KT 01/00 A3033 RMK A01 T00090004  RH  096%=      5-min Rain = 0
KSP2 060524Z 00001KT 01/M00 A3033 RMK A01 T00061001  RH  095%=      5-min Rain = 0
KSP2 060525Z 01001KT 00/M00 A3033 RMK A01 T00041004  RH  095%=      5-min Rain = 0
KSP2 060526Z 01001KT 00/M01 A3033 RMK A01 T00031006  RH  094%=      5-min Rain = 0
KSP2 060527Z 00001KT 00/M01 A3033 RMK A01 T00021007  RH  094%=      5-min Rain = 0
KSP2 060528Z 35001KT 00/01 A3033 RMK A01 T000000-8  RH  094%=      5-min Rain = 0
KSP2 060529Z 34001KT M00/M01 A3033 RMK A01 T10011009  RH  094%=      5-min Rain = 0
KSP2 060530Z 34001KT M00/M01 A3033 RMK A01 T10021011  RH  094%=      5-min Rain = 0
KSP2 060531Z 34001KT M00/M01 A3033 RMK A01 T10031012  RH  094%=      5-min Rain = 0
KSP2 060532Z 33001KT M00/M01 A3033 RMK A01 T10031011  RH  094%=      5-min Rain = 0
KSP2 060533Z 33002KT M00/M01 A3033 RMK A01 T10041013  RH  094%=      5-min Rain = 0
KSP2 060534Z 33002KT M00/M01 A3033 RMK A01 T10041012  RH  094%=      5-min Rain = 0
KSP2 060535Z 32001KT M00/M01 A3033 RMK A01 T10031011  RH  095%=      5-min Rain = 0
KSP2 060536Z 31001KT M00/M01 A3033 RMK A01 T10031010  RH  095%=      5-min Rain = 0
KSP2 060537Z 31001KT M00/M01 A3033 RMK A01 T10021008  RH  096%=      5-min Rain = 0
KSP2 060538Z 31002KT 00/M01 A3033 RMK A01 T00011005  RH  096%=      5-min Rain = 0
KSP2 060539Z 31002KT 00/M00 A3033 RMK A01 T00031002  RH  097%=      5-min Rain = 0
KSP2 060540Z 31002KT 01/00 A3033 RMK A01 T00050001  RH  097%=      5-min Rain = 0
KSP2 060541Z 30002KT 01/00 A3033 RMK A01 T00060002  RH  097%=      5-min Rain = 0
KSP2 060542Z 30002KT 01/00 A3033 RMK A01 T00060002  RH  097%=      5-min Rain = 0
KSP2 060543Z 29001KT 01/00 A3033 RMK A01 T000500-0  RH  096%=      5-min Rain = 0
KSP2 060544Z 29001KT 00/M00 A3033 RMK A01 T00031003  RH  096%=      5-min Rain = 0
KSP2 060545Z 29001KT 00/M01 A3033 RMK A01 T00011007  RH  094%=      5-min Rain = 0
KSP2 060546Z 31001KT 00/01 A3033 RMK A01 T000000-9  RH  094%=      5-min Rain = 0
KSP2 060547Z 31001KT 00/01 A3033 RMK A01 T00-000-9  RH  094%=      5-min Rain = 0
KSP2 060548Z 32001KT M00/M01 A3033 RMK A01 T10011009  RH  094%=      5-min Rain = 0
KSP2 060549Z 32001KT M00/M01 A3033 RMK A01 T10011010  RH  094%=      5-min Rain = 0
KSP2 060550Z 32001KT M00/M01 A3033 RMK A01 T10011009  RH  094%=      5-min Rain = 0
KSP2 060551Z 32001KT M00/M01 A3033 RMK A01 T10011009  RH  094%=      5-min Rain = 0
KSP2 060552Z 32001KT M00/M01 A3033 RMK A01 T10021009  RH  095%=      5-min Rain = 0
KSP2 060553Z 33001KT M00/M01 A3033 RMK A01 T10021010  RH  095%=      5-min Rain = 0
KSP2 060554Z 34001KT M00/M01 A3033 RMK A01 T10031011  RH  095%=      5-min Rain = 0
KSP2 060555Z 34001KT M01/M01 A3033 RMK A01 T10051013  RH  094%=      5-min Rain = 0
KSP2 060556Z 33001KT M01/M01 A3033 RMK A01 T10061014  RH  094%=      5-min Rain = 0
KSP2 060557Z 33001KT M01/M02 A3033 RMK A01 T10081017  RH  094%=      5-min Rain = 0
KSP2 060558Z 33001KT M01/M02 A3033 RMK A01 T10091017  RH  094%=      5-min Rain = 0
KSP2 060559Z 33001KT M01/M02 A3033 RMK A01 T10091017  RH  094%=      5-min Rain = 0

Page generated in 0.0694 seconds.